<?xml version="1.0" encoding="UTF-8" standalone="no" ?>
<gpx xmlns="http://www.topografix.com/GPX/1/1" xmlns:xsi="http://www.w3.org/2001/XMLSchema-instance" xsi:schemaLocation="http://www.topografix.com/GPX/1/1 http://www.topografix.com/GPX/1/1/gpx.xsd" version="1.1" creator="VisuGPX - https://www.visugpx.com">
  <metadata>
    <name>Raid Maurienne du 07 au 12.09.2020 - etape 1</name>
    <desc><![CDATA[Beaune - Les ménuires ; Belle piste pour rejoindre le col de la vallée étroite. Superbe single pour rejoindre les Ménuires. ]]></desc>
  </metadata>
  <trk>
    <name><![CDATA[12054009-Maurienne etape 1]]></name>
    <extensions>
      <line xmlns="http://www.topografix.com/GPX/gpx_style/0/2">
        <color>0000FF</color>
        <width>4</width>
      </line>
    </extensions>
    <trkseg>
      <trkpt lat="45.25103" lon="6.47274">
        <ele>1348</ele>
        <time>2022-06-09T16:40:00Z</time>
      </trkpt>
      <trkpt lat="45.25101" lon="6.47274">
        <ele>1348</ele>
        <time>2022-06-09T16:40:00Z</time>
      </trkpt>
      <trkpt lat="45.25103" lon="6.47277">
        <ele>1349</ele>
        <time>2022-06-09T16:40:01Z</time>
      </trkpt>
      <trkpt lat="45.25095" lon="6.4727">
        <ele>1347</ele>
        <time>2022-06-09T16:40:03Z</time>
      </trkpt>
      <trkpt lat="45.25096" lon="6.47268">
        <ele>1347</ele>
        <time>2022-06-09T16:40:04Z</time>
      </trkpt>
      <trkpt lat="45.25093" lon="6.47269">
        <ele>1347</ele>
        <time>2022-06-09T16:40:04Z</time>
      </trkpt>
      <trkpt lat="45.25092" lon="6.47258">
        <ele>1346</ele>
        <time>2022-06-09T16:40:06Z</time>
      </trkpt>
      <trkpt lat="45.25089" lon="6.47256">
        <ele>1346</ele>
        <time>2022-06-09T16:40:07Z</time>
      </trkpt>
      <trkpt lat="45.25072" lon="6.47257">
        <ele>1345</ele>
        <time>2022-06-09T16:40:11Z</time>
      </trkpt>
      <trkpt lat="45.25042" lon="6.47287">
        <ele>1346</ele>
        <time>2022-06-09T16:40:20Z</time>
      </trkpt>
      <trkpt lat="45.25026" lon="6.4735">
        <ele>1354</ele>
        <time>2022-06-09T16:40:31Z</time>
      </trkpt>
      <trkpt lat="45.24935" lon="6.47377">
        <ele>1355</ele>
        <time>2022-06-09T16:40:52Z</time>
      </trkpt>
      <trkpt lat="45.24933" lon="6.47376">
        <ele>1354</ele>
        <time>2022-06-09T16:40:53Z</time>
      </trkpt>
      <trkpt lat="45.24919" lon="6.47387">
        <ele>1356</ele>
        <time>2022-06-09T16:40:57Z</time>
      </trkpt>
      <trkpt lat="45.24883" lon="6.47408">
        <ele>1362</ele>
        <time>2022-06-09T16:41:06Z</time>
      </trkpt>
      <trkpt lat="45.24812" lon="6.4743">
        <ele>1372</ele>
        <time>2022-06-09T16:41:23Z</time>
      </trkpt>
      <trkpt lat="45.24779" lon="6.47424">
        <ele>1373</ele>
        <time>2022-06-09T16:41:30Z</time>
      </trkpt>
      <trkpt lat="45.24744" lon="6.47413">
        <ele>1372</ele>
        <time>2022-06-09T16:41:39Z</time>
      </trkpt>
      <trkpt lat="45.24708" lon="6.4743">
        <ele>1376</ele>
        <time>2022-06-09T16:41:48Z</time>
      </trkpt>
      <trkpt lat="45.24682" lon="6.47455">
        <ele>1381</ele>
        <time>2022-06-09T16:41:55Z</time>
      </trkpt>
      <trkpt lat="45.24653" lon="6.47467">
        <ele>1382</ele>
        <time>2022-06-09T16:42:02Z</time>
      </trkpt>
      <trkpt lat="45.24621" lon="6.47468">
        <ele>1380</ele>
        <time>2022-06-09T16:42:09Z</time>
      </trkpt>
      <trkpt lat="45.24603" lon="6.4749">
        <ele>1382</ele>
        <time>2022-06-09T16:42:15Z</time>
      </trkpt>
      <trkpt lat="45.24583" lon="6.47525">
        <ele>1386</ele>
        <time>2022-06-09T16:42:22Z</time>
      </trkpt>
      <trkpt lat="45.24574" lon="6.47545">
        <ele>1389</ele>
        <time>2022-06-09T16:42:26Z</time>
      </trkpt>
      <trkpt lat="45.24563" lon="6.4759">
        <ele>1397</ele>
        <time>2022-06-09T16:42:34Z</time>
      </trkpt>
      <trkpt lat="45.24544" lon="6.47623">
        <ele>1403</ele>
        <time>2022-06-09T16:42:41Z</time>
      </trkpt>
      <trkpt lat="45.24515" lon="6.47635">
        <ele>1405</ele>
        <time>2022-06-09T16:42:48Z</time>
      </trkpt>
      <trkpt lat="45.24494" lon="6.47656">
        <ele>1409</ele>
        <time>2022-06-09T16:42:54Z</time>
      </trkpt>
      <trkpt lat="45.24478" lon="6.47679">
        <ele>1412</ele>
        <time>2022-06-09T16:43:00Z</time>
      </trkpt>
      <trkpt lat="45.24448" lon="6.47694">
        <ele>1415</ele>
        <time>2022-06-09T16:43:07Z</time>
      </trkpt>
      <trkpt lat="45.24423" lon="6.47702">
        <ele>1416</ele>
        <time>2022-06-09T16:43:13Z</time>
      </trkpt>
      <trkpt lat="45.24394" lon="6.47703">
        <ele>1415</ele>
        <time>2022-06-09T16:43:20Z</time>
      </trkpt>
      <trkpt lat="45.24356" lon="6.47718">
        <ele>1416</ele>
        <time>2022-06-09T16:43:29Z</time>
      </trkpt>
      <trkpt lat="45.24284" lon="6.4776">
        <ele>1418</ele>
        <time>2022-06-09T16:43:47Z</time>
      </trkpt>
      <trkpt lat="45.24277" lon="6.47757">
        <ele>1416</ele>
        <time>2022-06-09T16:43:49Z</time>
      </trkpt>
      <trkpt lat="45.24257" lon="6.4774">
        <ele>1410</ele>
        <time>2022-06-09T16:43:54Z</time>
      </trkpt>
      <trkpt lat="45.24243" lon="6.47735">
        <ele>1407</ele>
        <time>2022-06-09T16:43:58Z</time>
      </trkpt>
      <trkpt lat="45.24225" lon="6.47735">
        <ele>1404</ele>
        <time>2022-06-09T16:44:02Z</time>
      </trkpt>
      <trkpt lat="45.24188" lon="6.47741">
        <ele>1400</ele>
        <time>2022-06-09T16:44:11Z</time>
      </trkpt>
      <trkpt lat="45.24168" lon="6.47745">
        <ele>1399</ele>
        <time>2022-06-09T16:44:15Z</time>
      </trkpt>
      <trkpt lat="45.24162" lon="6.47749">
        <ele>1399</ele>
        <time>2022-06-09T16:44:17Z</time>
      </trkpt>
      <trkpt lat="45.24115" lon="6.47797">
        <ele>1397</ele>
        <time>2022-06-09T16:44:30Z</time>
      </trkpt>
      <trkpt lat="45.24024" lon="6.47864">
        <ele>1394</ele>
        <time>2022-06-09T16:44:54Z</time>
      </trkpt>
      <trkpt lat="45.23983" lon="6.47923">
        <ele>1403</ele>
        <time>2022-06-09T16:45:08Z</time>
      </trkpt>
      <trkpt lat="45.23966" lon="6.4794">
        <ele>1405</ele>
        <time>2022-06-09T16:45:13Z</time>
      </trkpt>
      <trkpt lat="45.23935" lon="6.47955">
        <ele>1404</ele>
        <time>2022-06-09T16:45:20Z</time>
      </trkpt>
      <trkpt lat="45.23916" lon="6.47991">
        <ele>1409</ele>
        <time>2022-06-09T16:45:28Z</time>
      </trkpt>
      <trkpt lat="45.23906" lon="6.48022">
        <ele>1412</ele>
        <time>2022-06-09T16:45:33Z</time>
      </trkpt>
      <trkpt lat="45.23895" lon="6.48043">
        <ele>1414</ele>
        <time>2022-06-09T16:45:38Z</time>
      </trkpt>
      <trkpt lat="45.23874" lon="6.48069">
        <ele>1414</ele>
        <time>2022-06-09T16:45:44Z</time>
      </trkpt>
      <trkpt lat="45.23852" lon="6.48091">
        <ele>1413</ele>
        <time>2022-06-09T16:45:50Z</time>
      </trkpt>
      <trkpt lat="45.2383" lon="6.48126">
        <ele>1415</ele>
        <time>2022-06-09T16:45:58Z</time>
      </trkpt>
      <trkpt lat="45.23813" lon="6.48161">
        <ele>1420</ele>
        <time>2022-06-09T16:46:05Z</time>
      </trkpt>
      <trkpt lat="45.23788" lon="6.48193">
        <ele>1423</ele>
        <time>2022-06-09T16:46:13Z</time>
      </trkpt>
      <trkpt lat="45.23756" lon="6.48205">
        <ele>1420</ele>
        <time>2022-06-09T16:46:21Z</time>
      </trkpt>
      <trkpt lat="45.23723" lon="6.48211">
        <ele>1418</ele>
        <time>2022-06-09T16:46:29Z</time>
      </trkpt>
      <trkpt lat="45.23705" lon="6.48224">
        <ele>1420</ele>
        <time>2022-06-09T16:46:33Z</time>
      </trkpt>
      <trkpt lat="45.23683" lon="6.48253">
        <ele>1425</ele>
        <time>2022-06-09T16:46:40Z</time>
      </trkpt>
      <trkpt lat="45.23659" lon="6.48276">
        <ele>1427</ele>
        <time>2022-06-09T16:46:47Z</time>
      </trkpt>
      <trkpt lat="45.23635" lon="6.48286">
        <ele>1425</ele>
        <time>2022-06-09T16:46:53Z</time>
      </trkpt>
      <trkpt lat="45.23611" lon="6.48312">
        <ele>1427</ele>
        <time>2022-06-09T16:47:00Z</time>
      </trkpt>
      <trkpt lat="45.23564" lon="6.48383">
        <ele>1435</ele>
        <time>2022-06-09T16:47:16Z</time>
      </trkpt>
      <trkpt lat="45.23567" lon="6.48384">
        <ele>1436</ele>
        <time>2022-06-09T16:47:17Z</time>
      </trkpt>
      <trkpt lat="45.23565" lon="6.48383">
        <ele>1435</ele>
        <time>2022-06-09T16:47:17Z</time>
      </trkpt>
      <trkpt lat="45.23565" lon="6.48386">
        <ele>1436</ele>
        <time>2022-06-09T16:47:18Z</time>
      </trkpt>
      <trkpt lat="45.23564" lon="6.48383">
        <ele>1435</ele>
        <time>2022-06-09T16:47:18Z</time>
      </trkpt>
      <trkpt lat="45.23527" lon="6.48419">
        <ele>1435</ele>
        <time>2022-06-09T16:47:29Z</time>
      </trkpt>
      <trkpt lat="45.23503" lon="6.48456">
        <ele>1438</ele>
        <time>2022-06-09T16:47:37Z</time>
      </trkpt>
      <trkpt lat="45.23495" lon="6.48489">
        <ele>1443</ele>
        <time>2022-06-09T16:47:43Z</time>
      </trkpt>
      <trkpt lat="45.23473" lon="6.48551">
        <ele>1456</ele>
        <time>2022-06-09T16:47:54Z</time>
      </trkpt>
      <trkpt lat="45.23462" lon="6.48575">
        <ele>1461</ele>
        <time>2022-06-09T16:47:59Z</time>
      </trkpt>
      <trkpt lat="45.23457" lon="6.4858">
        <ele>1462</ele>
        <time>2022-06-09T16:48:00Z</time>
      </trkpt>
      <trkpt lat="45.23451" lon="6.48582">
        <ele>1461</ele>
        <time>2022-06-09T16:48:02Z</time>
      </trkpt>
      <trkpt lat="45.23429" lon="6.48575">
        <ele>1452</ele>
        <time>2022-06-09T16:48:07Z</time>
      </trkpt>
      <trkpt lat="45.23409" lon="6.48577">
        <ele>1449</ele>
        <time>2022-06-09T16:48:12Z</time>
      </trkpt>
      <trkpt lat="45.23388" lon="6.48593">
        <ele>1452</ele>
        <time>2022-06-09T16:48:17Z</time>
      </trkpt>
      <trkpt lat="45.23356" lon="6.48624">
        <ele>1459</ele>
        <time>2022-06-09T16:48:26Z</time>
      </trkpt>
      <trkpt lat="45.23314" lon="6.48643">
        <ele>1457</ele>
        <time>2022-06-09T16:48:37Z</time>
      </trkpt>
      <trkpt lat="45.23281" lon="6.48666">
        <ele>1455</ele>
        <time>2022-06-09T16:48:45Z</time>
      </trkpt>
      <trkpt lat="45.23233" lon="6.48714">
        <ele>1462</ele>
        <time>2022-06-09T16:48:59Z</time>
      </trkpt>
      <trkpt lat="45.23223" lon="6.48721">
        <ele>1463</ele>
        <time>2022-06-09T16:49:01Z</time>
      </trkpt>
      <trkpt lat="45.23212" lon="6.48722">
        <ele>1461</ele>
        <time>2022-06-09T16:49:04Z</time>
      </trkpt>
      <trkpt lat="45.23166" lon="6.48713">
        <ele>1449</ele>
        <time>2022-06-09T16:49:15Z</time>
      </trkpt>
      <trkpt lat="45.23115" lon="6.48676">
        <ele>1439</ele>
        <time>2022-06-09T16:49:28Z</time>
      </trkpt>
      <trkpt lat="45.23087" lon="6.48659">
        <ele>1433</ele>
        <time>2022-06-09T16:49:35Z</time>
      </trkpt>
      <trkpt lat="45.23029" lon="6.48658">
        <ele>1440</ele>
        <time>2022-06-09T16:49:49Z</time>
      </trkpt>
      <trkpt lat="45.2303" lon="6.48663">
        <ele>1442</ele>
        <time>2022-06-09T16:49:50Z</time>
      </trkpt>
      <trkpt lat="45.23033" lon="6.48661">
        <ele>1441</ele>
        <time>2022-06-09T16:49:51Z</time>
      </trkpt>
      <trkpt lat="45.22975" lon="6.48641">
        <ele>1438</ele>
        <time>2022-06-09T16:50:04Z</time>
      </trkpt>
      <trkpt lat="45.22957" lon="6.48628">
        <ele>1435</ele>
        <time>2022-06-09T16:50:09Z</time>
      </trkpt>
      <trkpt lat="45.2293" lon="6.48597">
        <ele>1426</ele>
        <time>2022-06-09T16:50:17Z</time>
      </trkpt>
      <trkpt lat="45.22901" lon="6.48584">
        <ele>1422</ele>
        <time>2022-06-09T16:50:24Z</time>
      </trkpt>
      <trkpt lat="45.22892" lon="6.48583">
        <ele>1422</ele>
        <time>2022-06-09T16:50:27Z</time>
      </trkpt>
      <trkpt lat="45.22841" lon="6.4859">
        <ele>1421</ele>
        <time>2022-06-09T16:50:38Z</time>
      </trkpt>
      <trkpt lat="45.22781" lon="6.48641">
        <ele>1424</ele>
        <time>2022-06-09T16:50:55Z</time>
      </trkpt>
      <trkpt lat="45.22781" lon="6.48647">
        <ele>1425</ele>
        <time>2022-06-09T16:50:56Z</time>
      </trkpt>
      <trkpt lat="45.22785" lon="6.48652">
        <ele>1427</ele>
        <time>2022-06-09T16:50:57Z</time>
      </trkpt>
      <trkpt lat="45.22786" lon="6.48658">
        <ele>1428</ele>
        <time>2022-06-09T16:50:58Z</time>
      </trkpt>
      <trkpt lat="45.22782" lon="6.48693">
        <ele>1433</ele>
        <time>2022-06-09T16:51:04Z</time>
      </trkpt>
      <trkpt lat="45.22758" lon="6.48766">
        <ele>1437</ele>
        <time>2022-06-09T16:51:17Z</time>
      </trkpt>
      <trkpt lat="45.22734" lon="6.48816">
        <ele>1437</ele>
        <time>2022-06-09T16:51:27Z</time>
      </trkpt>
      <trkpt lat="45.22721" lon="6.48866">
        <ele>1441</ele>
        <time>2022-06-09T16:51:36Z</time>
      </trkpt>
      <trkpt lat="45.22726" lon="6.489">
        <ele>1448</ele>
        <time>2022-06-09T16:51:42Z</time>
      </trkpt>
      <trkpt lat="45.22731" lon="6.48896">
        <ele>1449</ele>
        <time>2022-06-09T16:51:43Z</time>
      </trkpt>
      <trkpt lat="45.22758" lon="6.4885">
        <ele>1450</ele>
        <time>2022-06-09T16:51:53Z</time>
      </trkpt>
      <trkpt lat="45.22802" lon="6.48793">
        <ele>1454</ele>
        <time>2022-06-09T16:52:07Z</time>
      </trkpt>
      <trkpt lat="45.22805" lon="6.48795">
        <ele>1456</ele>
        <time>2022-06-09T16:52:07Z</time>
      </trkpt>
      <trkpt lat="45.22808" lon="6.48803">
        <ele>1458</ele>
        <time>2022-06-09T16:52:09Z</time>
      </trkpt>
      <trkpt lat="45.22793" lon="6.48867">
        <ele>1465</ele>
        <time>2022-06-09T16:52:20Z</time>
      </trkpt>
      <trkpt lat="45.22775" lon="6.48918">
        <ele>1468</ele>
        <time>2022-06-09T16:52:29Z</time>
      </trkpt>
      <trkpt lat="45.2274" lon="6.48997">
        <ele>1472</ele>
        <time>2022-06-09T16:52:45Z</time>
      </trkpt>
      <trkpt lat="45.22709" lon="6.49096">
        <ele>1475</ele>
        <time>2022-06-09T16:53:03Z</time>
      </trkpt>
      <trkpt lat="45.22708" lon="6.49112">
        <ele>1477</ele>
        <time>2022-06-09T16:53:05Z</time>
      </trkpt>
      <trkpt lat="45.22715" lon="6.4911">
        <ele>1479</ele>
        <time>2022-06-09T16:53:07Z</time>
      </trkpt>
      <trkpt lat="45.22732" lon="6.49079">
        <ele>1481</ele>
        <time>2022-06-09T16:53:13Z</time>
      </trkpt>
      <trkpt lat="45.22742" lon="6.49048">
        <ele>1480</ele>
        <time>2022-06-09T16:53:19Z</time>
      </trkpt>
      <trkpt lat="45.2275" lon="6.49046">
        <ele>1483</ele>
        <time>2022-06-09T16:53:21Z</time>
      </trkpt>
      <trkpt lat="45.22755" lon="6.49054">
        <ele>1486</ele>
        <time>2022-06-09T16:53:23Z</time>
      </trkpt>
      <trkpt lat="45.22751" lon="6.49086">
        <ele>1490</ele>
        <time>2022-06-09T16:53:28Z</time>
      </trkpt>
      <trkpt lat="45.22743" lon="6.49118">
        <ele>1491</ele>
        <time>2022-06-09T16:53:34Z</time>
      </trkpt>
      <trkpt lat="45.22721" lon="6.49181">
        <ele>1493</ele>
        <time>2022-06-09T16:53:45Z</time>
      </trkpt>
      <trkpt lat="45.22722" lon="6.49195">
        <ele>1496</ele>
        <time>2022-06-09T16:53:47Z</time>
      </trkpt>
      <trkpt lat="45.22726" lon="6.49199">
        <ele>1498</ele>
        <time>2022-06-09T16:53:49Z</time>
      </trkpt>
      <trkpt lat="45.22733" lon="6.49195">
        <ele>1500</ele>
        <time>2022-06-09T16:53:50Z</time>
      </trkpt>
      <trkpt lat="45.22766" lon="6.49129">
        <ele>1502</ele>
        <time>2022-06-09T16:54:04Z</time>
      </trkpt>
      <trkpt lat="45.22779" lon="6.49094">
        <ele>1502</ele>
        <time>2022-06-09T16:54:10Z</time>
      </trkpt>
      <trkpt lat="45.22797" lon="6.49065">
        <ele>1505</ele>
        <time>2022-06-09T16:54:16Z</time>
      </trkpt>
      <trkpt lat="45.22818" lon="6.49041">
        <ele>1509</ele>
        <time>2022-06-09T16:54:23Z</time>
      </trkpt>
      <trkpt lat="45.22836" lon="6.49014">
        <ele>1511</ele>
        <time>2022-06-09T16:54:29Z</time>
      </trkpt>
      <trkpt lat="45.22868" lon="6.48974">
        <ele>1516</ele>
        <time>2022-06-09T16:54:39Z</time>
      </trkpt>
      <trkpt lat="45.22908" lon="6.48936">
        <ele>1524</ele>
        <time>2022-06-09T16:54:50Z</time>
      </trkpt>
      <trkpt lat="45.22943" lon="6.48895">
        <ele>1530</ele>
        <time>2022-06-09T16:55:01Z</time>
      </trkpt>
      <trkpt lat="45.22962" lon="6.48879">
        <ele>1534</ele>
        <time>2022-06-09T16:55:06Z</time>
      </trkpt>
      <trkpt lat="45.23007" lon="6.48849">
        <ele>1541</ele>
        <time>2022-06-09T16:55:17Z</time>
      </trkpt>
      <trkpt lat="45.23026" lon="6.4884">
        <ele>1536</ele>
        <time>2022-06-09T16:55:22Z</time>
      </trkpt>
      <trkpt lat="45.2303" lon="6.48842">
        <ele>1536</ele>
        <time>2022-06-09T16:55:23Z</time>
      </trkpt>
      <trkpt lat="45.23031" lon="6.48848">
        <ele>1538</ele>
        <time>2022-06-09T16:55:24Z</time>
      </trkpt>
      <trkpt lat="45.22995" lon="6.48896">
        <ele>1550</ele>
        <time>2022-06-09T16:55:36Z</time>
      </trkpt>
      <trkpt lat="45.22986" lon="6.48913">
        <ele>1551</ele>
        <time>2022-06-09T16:55:39Z</time>
      </trkpt>
      <trkpt lat="45.22967" lon="6.48973">
        <ele>1556</ele>
        <time>2022-06-09T16:55:50Z</time>
      </trkpt>
      <trkpt lat="45.22946" lon="6.49023">
        <ele>1557</ele>
        <time>2022-06-09T16:56:00Z</time>
      </trkpt>
      <trkpt lat="45.22927" lon="6.49083">
        <ele>1561</ele>
        <time>2022-06-09T16:56:10Z</time>
      </trkpt>
      <trkpt lat="45.22924" lon="6.49096">
        <ele>1563</ele>
        <time>2022-06-09T16:56:13Z</time>
      </trkpt>
      <trkpt lat="45.22927" lon="6.49101">
        <ele>1566</ele>
        <time>2022-06-09T16:56:14Z</time>
      </trkpt>
      <trkpt lat="45.22932" lon="6.491">
        <ele>1568</ele>
        <time>2022-06-09T16:56:15Z</time>
      </trkpt>
      <trkpt lat="45.22964" lon="6.49042">
        <ele>1569</ele>
        <time>2022-06-09T16:56:27Z</time>
      </trkpt>
      <trkpt lat="45.22969" lon="6.49044">
        <ele>1571</ele>
        <time>2022-06-09T16:56:28Z</time>
      </trkpt>
      <trkpt lat="45.22969" lon="6.49051">
        <ele>1573</ele>
        <time>2022-06-09T16:56:29Z</time>
      </trkpt>
      <trkpt lat="45.22954" lon="6.49074">
        <ele>1571</ele>
        <time>2022-06-09T16:56:35Z</time>
      </trkpt>
      <trkpt lat="45.22928" lon="6.49134">
        <ele>1575</ele>
        <time>2022-06-09T16:56:46Z</time>
      </trkpt>
      <trkpt lat="45.22915" lon="6.49155">
        <ele>1575</ele>
        <time>2022-06-09T16:56:51Z</time>
      </trkpt>
      <trkpt lat="45.22919" lon="6.49163">
        <ele>1579</ele>
        <time>2022-06-09T16:56:52Z</time>
      </trkpt>
      <trkpt lat="45.22921" lon="6.49164">
        <ele>1580</ele>
        <time>2022-06-09T16:56:53Z</time>
      </trkpt>
      <trkpt lat="45.22926" lon="6.49161">
        <ele>1581</ele>
        <time>2022-06-09T16:56:54Z</time>
      </trkpt>
      <trkpt lat="45.23048" lon="6.48994">
        <ele>1590</ele>
        <time>2022-06-09T16:57:34Z</time>
      </trkpt>
      <trkpt lat="45.23063" lon="6.48979">
        <ele>1590</ele>
        <time>2022-06-09T16:57:38Z</time>
      </trkpt>
      <trkpt lat="45.23099" lon="6.48965">
        <ele>1592</ele>
        <time>2022-06-09T16:57:47Z</time>
      </trkpt>
      <trkpt lat="45.23103" lon="6.48968">
        <ele>1594</ele>
        <time>2022-06-09T16:57:48Z</time>
      </trkpt>
      <trkpt lat="45.23103" lon="6.48971">
        <ele>1595</ele>
        <time>2022-06-09T16:57:48Z</time>
      </trkpt>
      <trkpt lat="45.23069" lon="6.48999">
        <ele>1599</ele>
        <time>2022-06-09T16:57:57Z</time>
      </trkpt>
      <trkpt lat="45.23063" lon="6.49008">
        <ele>1599</ele>
        <time>2022-06-09T16:57:59Z</time>
      </trkpt>
      <trkpt lat="45.23042" lon="6.49053">
        <ele>1603</ele>
        <time>2022-06-09T16:58:08Z</time>
      </trkpt>
      <trkpt lat="45.22993" lon="6.49178">
        <ele>1612</ele>
        <time>2022-06-09T16:58:32Z</time>
      </trkpt>
      <trkpt lat="45.22974" lon="6.49204">
        <ele>1610</ele>
        <time>2022-06-09T16:58:38Z</time>
      </trkpt>
      <trkpt lat="45.22961" lon="6.49232">
        <ele>1610</ele>
        <time>2022-06-09T16:58:44Z</time>
      </trkpt>
      <trkpt lat="45.22967" lon="6.49262">
        <ele>1618</ele>
        <time>2022-06-09T16:58:49Z</time>
      </trkpt>
      <trkpt lat="45.22976" lon="6.49259">
        <ele>1621</ele>
        <time>2022-06-09T16:58:51Z</time>
      </trkpt>
      <trkpt lat="45.22985" lon="6.49227">
        <ele>1618</ele>
        <time>2022-06-09T16:58:56Z</time>
      </trkpt>
      <trkpt lat="45.23073" lon="6.49105">
        <ele>1631</ele>
        <time>2022-06-09T16:59:25Z</time>
      </trkpt>
      <trkpt lat="45.23098" lon="6.49075">
        <ele>1631</ele>
        <time>2022-06-09T16:59:33Z</time>
      </trkpt>
      <trkpt lat="45.23119" lon="6.49062">
        <ele>1632</ele>
        <time>2022-06-09T16:59:38Z</time>
      </trkpt>
      <trkpt lat="45.23123" lon="6.49061">
        <ele>1633</ele>
        <time>2022-06-09T16:59:39Z</time>
      </trkpt>
      <trkpt lat="45.23126" lon="6.49065">
        <ele>1635</ele>
        <time>2022-06-09T16:59:40Z</time>
      </trkpt>
      <trkpt lat="45.23102" lon="6.49093">
        <ele>1638</ele>
        <time>2022-06-09T16:59:47Z</time>
      </trkpt>
      <trkpt lat="45.23082" lon="6.49137">
        <ele>1644</ele>
        <time>2022-06-09T16:59:56Z</time>
      </trkpt>
      <trkpt lat="45.23043" lon="6.49258">
        <ele>1650</ele>
        <time>2022-06-09T17:00:18Z</time>
      </trkpt>
      <trkpt lat="45.23042" lon="6.49287">
        <ele>1655</ele>
        <time>2022-06-09T17:00:23Z</time>
      </trkpt>
      <trkpt lat="45.23028" lon="6.49366">
        <ele>1661</ele>
        <time>2022-06-09T17:00:36Z</time>
      </trkpt>
      <trkpt lat="45.2302" lon="6.49408">
        <ele>1663</ele>
        <time>2022-06-09T17:00:43Z</time>
      </trkpt>
      <trkpt lat="45.23011" lon="6.49435">
        <ele>1663</ele>
        <time>2022-06-09T17:00:48Z</time>
      </trkpt>
      <trkpt lat="45.23006" lon="6.49492">
        <ele>1668</ele>
        <time>2022-06-09T17:00:58Z</time>
      </trkpt>
      <trkpt lat="45.23001" lon="6.4952">
        <ele>1670</ele>
        <time>2022-06-09T17:01:02Z</time>
      </trkpt>
      <trkpt lat="45.22998" lon="6.4958">
        <ele>1678</ele>
        <time>2022-06-09T17:01:12Z</time>
      </trkpt>
      <trkpt lat="45.22984" lon="6.49615">
        <ele>1677</ele>
        <time>2022-06-09T17:01:19Z</time>
      </trkpt>
      <trkpt lat="45.22978" lon="6.49643">
        <ele>1680</ele>
        <time>2022-06-09T17:01:24Z</time>
      </trkpt>
      <trkpt lat="45.22945" lon="6.49742">
        <ele>1685</ele>
        <time>2022-06-09T17:01:42Z</time>
      </trkpt>
      <trkpt lat="45.22935" lon="6.49803">
        <ele>1693</ele>
        <time>2022-06-09T17:01:52Z</time>
      </trkpt>
      <trkpt lat="45.2291" lon="6.49856">
        <ele>1693</ele>
        <time>2022-06-09T17:02:02Z</time>
      </trkpt>
      <trkpt lat="45.22902" lon="6.49906">
        <ele>1700</ele>
        <time>2022-06-09T17:02:11Z</time>
      </trkpt>
      <trkpt lat="45.22868" lon="6.50002">
        <ele>1704</ele>
        <time>2022-06-09T17:02:29Z</time>
      </trkpt>
      <trkpt lat="45.22844" lon="6.50095">
        <ele>1715</ele>
        <time>2022-06-09T17:02:45Z</time>
      </trkpt>
      <trkpt lat="45.22835" lon="6.50116">
        <ele>1717</ele>
        <time>2022-06-09T17:02:49Z</time>
      </trkpt>
      <trkpt lat="45.22814" lon="6.50148">
        <ele>1716</ele>
        <time>2022-06-09T17:02:56Z</time>
      </trkpt>
      <trkpt lat="45.22779" lon="6.5024">
        <ele>1719</ele>
        <time>2022-06-09T17:03:13Z</time>
      </trkpt>
      <trkpt lat="45.22774" lon="6.5027">
        <ele>1722</ele>
        <time>2022-06-09T17:03:18Z</time>
      </trkpt>
      <trkpt lat="45.2278" lon="6.50331">
        <ele>1735</ele>
        <time>2022-06-09T17:03:28Z</time>
      </trkpt>
      <trkpt lat="45.22778" lon="6.50348">
        <ele>1738</ele>
        <time>2022-06-09T17:03:31Z</time>
      </trkpt>
      <trkpt lat="45.22714" lon="6.50433">
        <ele>1730</ele>
        <time>2022-06-09T17:03:52Z</time>
      </trkpt>
      <trkpt lat="45.2271" lon="6.50442">
        <ele>1731</ele>
        <time>2022-06-09T17:03:54Z</time>
      </trkpt>
      <trkpt lat="45.22704" lon="6.50459">
        <ele>1733</ele>
        <time>2022-06-09T17:03:57Z</time>
      </trkpt>
      <trkpt lat="45.22693" lon="6.50507">
        <ele>1740</ele>
        <time>2022-06-09T17:04:05Z</time>
      </trkpt>
      <trkpt lat="45.22669" lon="6.50567">
        <ele>1744</ele>
        <time>2022-06-09T17:04:16Z</time>
      </trkpt>
      <trkpt lat="45.2266" lon="6.50614">
        <ele>1745</ele>
        <time>2022-06-09T17:04:24Z</time>
      </trkpt>
      <trkpt lat="45.22652" lon="6.50637">
        <ele>1744</ele>
        <time>2022-06-09T17:04:29Z</time>
      </trkpt>
      <trkpt lat="45.22651" lon="6.5071">
        <ele>1748</ele>
        <time>2022-06-09T17:04:41Z</time>
      </trkpt>
      <trkpt lat="45.22647" lon="6.50735">
        <ele>1748</ele>
        <time>2022-06-09T17:04:45Z</time>
      </trkpt>
      <trkpt lat="45.22653" lon="6.50747">
        <ele>1752</ele>
        <time>2022-06-09T17:04:47Z</time>
      </trkpt>
      <trkpt lat="45.22657" lon="6.50743">
        <ele>1753</ele>
        <time>2022-06-09T17:04:48Z</time>
      </trkpt>
      <trkpt lat="45.22672" lon="6.50656">
        <ele>1754</ele>
        <time>2022-06-09T17:05:03Z</time>
      </trkpt>
      <trkpt lat="45.22717" lon="6.50567">
        <ele>1764</ele>
        <time>2022-06-09T17:05:21Z</time>
      </trkpt>
      <trkpt lat="45.22804" lon="6.50469">
        <ele>1774</ele>
        <time>2022-06-09T17:05:47Z</time>
      </trkpt>
      <trkpt lat="45.22828" lon="6.50447">
        <ele>1778</ele>
        <time>2022-06-09T17:05:54Z</time>
      </trkpt>
      <trkpt lat="45.22835" lon="6.50452">
        <ele>1782</ele>
        <time>2022-06-09T17:05:56Z</time>
      </trkpt>
      <trkpt lat="45.22834" lon="6.50458">
        <ele>1783</ele>
        <time>2022-06-09T17:05:57Z</time>
      </trkpt>
      <trkpt lat="45.22818" lon="6.50478">
        <ele>1781</ele>
        <time>2022-06-09T17:06:01Z</time>
      </trkpt>
      <trkpt lat="45.22786" lon="6.50547">
        <ele>1785</ele>
        <time>2022-06-09T17:06:15Z</time>
      </trkpt>
      <trkpt lat="45.22785" lon="6.50555">
        <ele>1787</ele>
        <time>2022-06-09T17:06:16Z</time>
      </trkpt>
      <trkpt lat="45.2279" lon="6.50561">
        <ele>1790</ele>
        <time>2022-06-09T17:06:18Z</time>
      </trkpt>
      <trkpt lat="45.22846" lon="6.5051">
        <ele>1798</ele>
        <time>2022-06-09T17:06:33Z</time>
      </trkpt>
      <trkpt lat="45.22871" lon="6.50494">
        <ele>1803</ele>
        <time>2022-06-09T17:06:40Z</time>
      </trkpt>
      <trkpt lat="45.22892" lon="6.50453">
        <ele>1803</ele>
        <time>2022-06-09T17:06:48Z</time>
      </trkpt>
      <trkpt lat="45.22913" lon="6.50403">
        <ele>1801</ele>
        <time>2022-06-09T17:06:58Z</time>
      </trkpt>
      <trkpt lat="45.22963" lon="6.50344">
        <ele>1811</ele>
        <time>2022-06-09T17:07:13Z</time>
      </trkpt>
      <trkpt lat="45.2298" lon="6.5031">
        <ele>1813</ele>
        <time>2022-06-09T17:07:20Z</time>
      </trkpt>
      <trkpt lat="45.23007" lon="6.50268">
        <ele>1815</ele>
        <time>2022-06-09T17:07:29Z</time>
      </trkpt>
      <trkpt lat="45.23008" lon="6.50279">
        <ele>1817</ele>
        <time>2022-06-09T17:07:31Z</time>
      </trkpt>
      <trkpt lat="45.22999" lon="6.50306">
        <ele>1819</ele>
        <time>2022-06-09T17:07:36Z</time>
      </trkpt>
      <trkpt lat="45.2298" lon="6.50382">
        <ele>1824</ele>
        <time>2022-06-09T17:07:49Z</time>
      </trkpt>
      <trkpt lat="45.22955" lon="6.50453">
        <ele>1825</ele>
        <time>2022-06-09T17:08:02Z</time>
      </trkpt>
      <trkpt lat="45.22939" lon="6.50524">
        <ele>1833</ele>
        <time>2022-06-09T17:08:15Z</time>
      </trkpt>
      <trkpt lat="45.22922" lon="6.50584">
        <ele>1839</ele>
        <time>2022-06-09T17:08:25Z</time>
      </trkpt>
      <trkpt lat="45.22908" lon="6.50607">
        <ele>1838</ele>
        <time>2022-06-09T17:08:30Z</time>
      </trkpt>
      <trkpt lat="45.22893" lon="6.50642">
        <ele>1840</ele>
        <time>2022-06-09T17:08:37Z</time>
      </trkpt>
      <trkpt lat="45.22871" lon="6.50698">
        <ele>1842</ele>
        <time>2022-06-09T17:08:47Z</time>
      </trkpt>
      <trkpt lat="45.22869" lon="6.50708">
        <ele>1843</ele>
        <time>2022-06-09T17:08:49Z</time>
      </trkpt>
      <trkpt lat="45.22873" lon="6.50715">
        <ele>1845</ele>
        <time>2022-06-09T17:08:51Z</time>
      </trkpt>
      <trkpt lat="45.22879" lon="6.50714">
        <ele>1847</ele>
        <time>2022-06-09T17:08:52Z</time>
      </trkpt>
      <trkpt lat="45.22893" lon="6.50689">
        <ele>1847</ele>
        <time>2022-06-09T17:08:57Z</time>
      </trkpt>
      <trkpt lat="45.22932" lon="6.5064">
        <ele>1853</ele>
        <time>2022-06-09T17:09:09Z</time>
      </trkpt>
      <trkpt lat="45.22988" lon="6.50558">
        <ele>1857</ele>
        <time>2022-06-09T17:09:28Z</time>
      </trkpt>
      <trkpt lat="45.23016" lon="6.50533">
        <ele>1861</ele>
        <time>2022-06-09T17:09:36Z</time>
      </trkpt>
      <trkpt lat="45.23028" lon="6.50514">
        <ele>1861</ele>
        <time>2022-06-09T17:09:40Z</time>
      </trkpt>
      <trkpt lat="45.23047" lon="6.50495">
        <ele>1863</ele>
        <time>2022-06-09T17:09:46Z</time>
      </trkpt>
      <trkpt lat="45.23064" lon="6.50481">
        <ele>1867</ele>
        <time>2022-06-09T17:09:50Z</time>
      </trkpt>
      <trkpt lat="45.23068" lon="6.50481">
        <ele>1868</ele>
        <time>2022-06-09T17:09:51Z</time>
      </trkpt>
      <trkpt lat="45.23072" lon="6.50489">
        <ele>1871</ele>
        <time>2022-06-09T17:09:53Z</time>
      </trkpt>
      <trkpt lat="45.2307" lon="6.50497">
        <ele>1871</ele>
        <time>2022-06-09T17:09:54Z</time>
      </trkpt>
      <trkpt lat="45.23047" lon="6.50539">
        <ele>1872</ele>
        <time>2022-06-09T17:10:03Z</time>
      </trkpt>
      <trkpt lat="45.23029" lon="6.50586">
        <ele>1876</ele>
        <time>2022-06-09T17:10:12Z</time>
      </trkpt>
      <trkpt lat="45.23014" lon="6.50604">
        <ele>1875</ele>
        <time>2022-06-09T17:10:16Z</time>
      </trkpt>
      <trkpt lat="45.23016" lon="6.50624">
        <ele>1879</ele>
        <time>2022-06-09T17:10:20Z</time>
      </trkpt>
      <trkpt lat="45.23048" lon="6.50594">
        <ele>1883</ele>
        <time>2022-06-09T17:10:29Z</time>
      </trkpt>
      <trkpt lat="45.23064" lon="6.50585">
        <ele>1886</ele>
        <time>2022-06-09T17:10:33Z</time>
      </trkpt>
      <trkpt lat="45.2302" lon="6.50692">
        <ele>1891</ele>
        <time>2022-06-09T17:10:53Z</time>
      </trkpt>
      <trkpt lat="45.23014" lon="6.5073">
        <ele>1893</ele>
        <time>2022-06-09T17:10:59Z</time>
      </trkpt>
      <trkpt lat="45.23012" lon="6.50764">
        <ele>1895</ele>
        <time>2022-06-09T17:11:05Z</time>
      </trkpt>
      <trkpt lat="45.23014" lon="6.50827">
        <ele>1902</ele>
        <time>2022-06-09T17:11:15Z</time>
      </trkpt>
      <trkpt lat="45.23003" lon="6.50882">
        <ele>1907</ele>
        <time>2022-06-09T17:11:25Z</time>
      </trkpt>
      <trkpt lat="45.2299" lon="6.50915">
        <ele>1909</ele>
        <time>2022-06-09T17:11:31Z</time>
      </trkpt>
      <trkpt lat="45.22952" lon="6.50967">
        <ele>1907</ele>
        <time>2022-06-09T17:11:43Z</time>
      </trkpt>
      <trkpt lat="45.22939" lon="6.50995">
        <ele>1908</ele>
        <time>2022-06-09T17:11:49Z</time>
      </trkpt>
      <trkpt lat="45.22934" lon="6.51019">
        <ele>1912</ele>
        <time>2022-06-09T17:11:53Z</time>
      </trkpt>
      <trkpt lat="45.22934" lon="6.51042">
        <ele>1917</ele>
        <time>2022-06-09T17:11:57Z</time>
      </trkpt>
      <trkpt lat="45.22942" lon="6.51049">
        <ele>1921</ele>
        <time>2022-06-09T17:11:59Z</time>
      </trkpt>
      <trkpt lat="45.22946" lon="6.51045">
        <ele>1921</ele>
        <time>2022-06-09T17:12:00Z</time>
      </trkpt>
      <trkpt lat="45.22953" lon="6.51029">
        <ele>1920</ele>
        <time>2022-06-09T17:12:03Z</time>
      </trkpt>
      <trkpt lat="45.22966" lon="6.51013">
        <ele>1920</ele>
        <time>2022-06-09T17:12:07Z</time>
      </trkpt>
      <trkpt lat="45.23005" lon="6.50977">
        <ele>1925</ele>
        <time>2022-06-09T17:12:18Z</time>
      </trkpt>
      <trkpt lat="45.23053" lon="6.50917">
        <ele>1930</ele>
        <time>2022-06-09T17:12:33Z</time>
      </trkpt>
      <trkpt lat="45.2309" lon="6.50862">
        <ele>1933</ele>
        <time>2022-06-09T17:12:45Z</time>
      </trkpt>
      <trkpt lat="45.23103" lon="6.50835">
        <ele>1934</ele>
        <time>2022-06-09T17:12:51Z</time>
      </trkpt>
      <trkpt lat="45.23133" lon="6.50748">
        <ele>1934</ele>
        <time>2022-06-09T17:13:07Z</time>
      </trkpt>
      <trkpt lat="45.23151" lon="6.50711">
        <ele>1934</ele>
        <time>2022-06-09T17:13:14Z</time>
      </trkpt>
      <trkpt lat="45.23176" lon="6.50669">
        <ele>1935</ele>
        <time>2022-06-09T17:13:23Z</time>
      </trkpt>
      <trkpt lat="45.23186" lon="6.50629">
        <ele>1932</ele>
        <time>2022-06-09T17:13:30Z</time>
      </trkpt>
      <trkpt lat="45.2321" lon="6.50565">
        <ele>1929</ele>
        <time>2022-06-09T17:13:42Z</time>
      </trkpt>
      <trkpt lat="45.23244" lon="6.50534">
        <ele>1933</ele>
        <time>2022-06-09T17:13:52Z</time>
      </trkpt>
      <trkpt lat="45.23362" lon="6.50394">
        <ele>1948</ele>
        <time>2022-06-09T17:14:27Z</time>
      </trkpt>
      <trkpt lat="45.23375" lon="6.5035">
        <ele>1945</ele>
        <time>2022-06-09T17:14:35Z</time>
      </trkpt>
      <trkpt lat="45.23377" lon="6.50331">
        <ele>1942</ele>
        <time>2022-06-09T17:14:38Z</time>
      </trkpt>
      <trkpt lat="45.23387" lon="6.50295">
        <ele>1939</ele>
        <time>2022-06-09T17:14:45Z</time>
      </trkpt>
      <trkpt lat="45.23397" lon="6.50273">
        <ele>1938</ele>
        <time>2022-06-09T17:14:49Z</time>
      </trkpt>
      <trkpt lat="45.23441" lon="6.50183">
        <ele>1938</ele>
        <time>2022-06-09T17:15:07Z</time>
      </trkpt>
      <trkpt lat="45.23486" lon="6.50124">
        <ele>1944</ele>
        <time>2022-06-09T17:15:21Z</time>
      </trkpt>
      <trkpt lat="45.2351" lon="6.50081">
        <ele>1944</ele>
        <time>2022-06-09T17:15:30Z</time>
      </trkpt>
      <trkpt lat="45.23543" lon="6.50008">
        <ele>1950</ele>
        <time>2022-06-09T17:15:45Z</time>
      </trkpt>
      <trkpt lat="45.23592" lon="6.4988">
        <ele>1956</ele>
        <time>2022-06-09T17:16:09Z</time>
      </trkpt>
      <trkpt lat="45.23612" lon="6.49834">
        <ele>1956</ele>
        <time>2022-06-09T17:16:18Z</time>
      </trkpt>
      <trkpt lat="45.2365" lon="6.4976">
        <ele>1957</ele>
        <time>2022-06-09T17:16:33Z</time>
      </trkpt>
      <trkpt lat="45.23676" lon="6.49722">
        <ele>1957</ele>
        <time>2022-06-09T17:16:41Z</time>
      </trkpt>
      <trkpt lat="45.23707" lon="6.49697">
        <ele>1959</ele>
        <time>2022-06-09T17:16:50Z</time>
      </trkpt>
      <trkpt lat="45.23742" lon="6.49681">
        <ele>1965</ele>
        <time>2022-06-09T17:16:58Z</time>
      </trkpt>
      <trkpt lat="45.23772" lon="6.49671">
        <ele>1967</ele>
        <time>2022-06-09T17:17:05Z</time>
      </trkpt>
      <trkpt lat="45.23827" lon="6.4967">
        <ele>1972</ele>
        <time>2022-06-09T17:17:18Z</time>
      </trkpt>
      <trkpt lat="45.23852" lon="6.49673">
        <ele>1974</ele>
        <time>2022-06-09T17:17:24Z</time>
      </trkpt>
      <trkpt lat="45.23929" lon="6.49669">
        <ele>1978</ele>
        <time>2022-06-09T17:17:42Z</time>
      </trkpt>
      <trkpt lat="45.2395" lon="6.4967">
        <ele>1979</ele>
        <time>2022-06-09T17:17:47Z</time>
      </trkpt>
      <trkpt lat="45.23975" lon="6.4968">
        <ele>1982</ele>
        <time>2022-06-09T17:17:53Z</time>
      </trkpt>
      <trkpt lat="45.24" lon="6.49677">
        <ele>1982</ele>
        <time>2022-06-09T17:17:59Z</time>
      </trkpt>
      <trkpt lat="45.24018" lon="6.49699">
        <ele>1979</ele>
        <time>2022-06-09T17:18:05Z</time>
      </trkpt>
      <trkpt lat="45.24028" lon="6.49732">
        <ele>1982</ele>
        <time>2022-06-09T17:18:10Z</time>
      </trkpt>
      <trkpt lat="45.2404" lon="6.49788">
        <ele>1991</ele>
        <time>2022-06-09T17:18:20Z</time>
      </trkpt>
      <trkpt lat="45.24049" lon="6.49803">
        <ele>1992</ele>
        <time>2022-06-09T17:18:23Z</time>
      </trkpt>
      <trkpt lat="45.24063" lon="6.49846">
        <ele>1999</ele>
        <time>2022-06-09T17:18:31Z</time>
      </trkpt>
      <trkpt lat="45.24079" lon="6.49876">
        <ele>2003</ele>
        <time>2022-06-09T17:18:37Z</time>
      </trkpt>
      <trkpt lat="45.24107" lon="6.49887">
        <ele>1998</ele>
        <time>2022-06-09T17:18:44Z</time>
      </trkpt>
      <trkpt lat="45.24121" lon="6.49907">
        <ele>1998</ele>
        <time>2022-06-09T17:18:49Z</time>
      </trkpt>
      <trkpt lat="45.24133" lon="6.49945">
        <ele>2002</ele>
        <time>2022-06-09T17:18:56Z</time>
      </trkpt>
      <trkpt lat="45.24135" lon="6.50027">
        <ele>2014</ele>
        <time>2022-06-09T17:19:09Z</time>
      </trkpt>
      <trkpt lat="45.24148" lon="6.50068">
        <ele>2016</ele>
        <time>2022-06-09T17:19:16Z</time>
      </trkpt>
      <trkpt lat="45.2415" lon="6.50068">
        <ele>2016</ele>
        <time>2022-06-09T17:19:17Z</time>
      </trkpt>
      <trkpt lat="45.24161" lon="6.50084">
        <ele>2014</ele>
        <time>2022-06-09T17:19:21Z</time>
      </trkpt>
      <trkpt lat="45.24185" lon="6.50103">
        <ele>2014</ele>
        <time>2022-06-09T17:19:27Z</time>
      </trkpt>
      <trkpt lat="45.24226" lon="6.50124">
        <ele>2013</ele>
        <time>2022-06-09T17:19:37Z</time>
      </trkpt>
      <trkpt lat="45.24291" lon="6.50149">
        <ele>2017</ele>
        <time>2022-06-09T17:19:53Z</time>
      </trkpt>
      <trkpt lat="45.24288" lon="6.50149">
        <ele>2017</ele>
        <time>2022-06-09T17:19:54Z</time>
      </trkpt>
      <trkpt lat="45.24293" lon="6.50148">
        <ele>2017</ele>
        <time>2022-06-09T17:19:55Z</time>
      </trkpt>
      <trkpt lat="45.24292" lon="6.50151">
        <ele>2017</ele>
        <time>2022-06-09T17:19:55Z</time>
      </trkpt>
      <trkpt lat="45.24294" lon="6.50149">
        <ele>2017</ele>
        <time>2022-06-09T17:19:56Z</time>
      </trkpt>
      <trkpt lat="45.24295" lon="6.50152">
        <ele>2018</ele>
        <time>2022-06-09T17:19:56Z</time>
      </trkpt>
      <trkpt lat="45.24294" lon="6.50147">
        <ele>2017</ele>
        <time>2022-06-09T17:19:57Z</time>
      </trkpt>
      <trkpt lat="45.24295" lon="6.50152">
        <ele>2018</ele>
        <time>2022-06-09T17:19:58Z</time>
      </trkpt>
      <trkpt lat="45.24343" lon="6.50137">
        <ele>2016</ele>
        <time>2022-06-09T17:20:10Z</time>
      </trkpt>
      <trkpt lat="45.2437" lon="6.50136">
        <ele>2017</ele>
        <time>2022-06-09T17:20:16Z</time>
      </trkpt>
      <trkpt lat="45.2439" lon="6.50138">
        <ele>2018</ele>
        <time>2022-06-09T17:20:21Z</time>
      </trkpt>
      <trkpt lat="45.24418" lon="6.50136">
        <ele>2019</ele>
        <time>2022-06-09T17:20:27Z</time>
      </trkpt>
      <trkpt lat="45.24517" lon="6.50112">
        <ele>2021</ele>
        <time>2022-06-09T17:20:51Z</time>
      </trkpt>
      <trkpt lat="45.24544" lon="6.50123">
        <ele>2026</ele>
        <time>2022-06-09T17:20:57Z</time>
      </trkpt>
      <trkpt lat="45.24565" lon="6.50128">
        <ele>2030</ele>
        <time>2022-06-09T17:21:02Z</time>
      </trkpt>
      <trkpt lat="45.24576" lon="6.5014">
        <ele>2033</ele>
        <time>2022-06-09T17:21:05Z</time>
      </trkpt>
      <trkpt lat="45.24574" lon="6.50146">
        <ele>2034</ele>
        <time>2022-06-09T17:21:06Z</time>
      </trkpt>
      <trkpt lat="45.24525" lon="6.50174">
        <ele>2037</ele>
        <time>2022-06-09T17:21:19Z</time>
      </trkpt>
      <trkpt lat="45.24526" lon="6.50182">
        <ele>2038</ele>
        <time>2022-06-09T17:21:20Z</time>
      </trkpt>
      <trkpt lat="45.24532" lon="6.50183">
        <ele>2039</ele>
        <time>2022-06-09T17:21:22Z</time>
      </trkpt>
      <trkpt lat="45.24541" lon="6.50177">
        <ele>2039</ele>
        <time>2022-06-09T17:21:24Z</time>
      </trkpt>
      <trkpt lat="45.2456" lon="6.50172">
        <ele>2039</ele>
        <time>2022-06-09T17:21:28Z</time>
      </trkpt>
      <trkpt lat="45.24586" lon="6.50178">
        <ele>2043</ele>
        <time>2022-06-09T17:21:35Z</time>
      </trkpt>
      <trkpt lat="45.24614" lon="6.50195">
        <ele>2048</ele>
        <time>2022-06-09T17:21:42Z</time>
      </trkpt>
      <trkpt lat="45.24623" lon="6.50194">
        <ele>2049</ele>
        <time>2022-06-09T17:21:44Z</time>
      </trkpt>
      <trkpt lat="45.2464" lon="6.50204">
        <ele>2052</ele>
        <time>2022-06-09T17:21:48Z</time>
      </trkpt>
      <trkpt lat="45.24661" lon="6.50209">
        <ele>2055</ele>
        <time>2022-06-09T17:21:53Z</time>
      </trkpt>
      <trkpt lat="45.24696" lon="6.50193">
        <ele>2059</ele>
        <time>2022-06-09T17:22:02Z</time>
      </trkpt>
      <trkpt lat="45.24766" lon="6.5014">
        <ele>2061</ele>
        <time>2022-06-09T17:22:20Z</time>
      </trkpt>
      <trkpt lat="45.24778" lon="6.5014">
        <ele>2062</ele>
        <time>2022-06-09T17:22:23Z</time>
      </trkpt>
      <trkpt lat="45.24796" lon="6.50132">
        <ele>2063</ele>
        <time>2022-06-09T17:22:27Z</time>
      </trkpt>
      <trkpt lat="45.24804" lon="6.50133">
        <ele>2064</ele>
        <time>2022-06-09T17:22:29Z</time>
      </trkpt>
      <trkpt lat="45.24812" lon="6.50129">
        <ele>2065</ele>
        <time>2022-06-09T17:22:31Z</time>
      </trkpt>
      <trkpt lat="45.24829" lon="6.5013">
        <ele>2067</ele>
        <time>2022-06-09T17:22:35Z</time>
      </trkpt>
      <trkpt lat="45.24851" lon="6.50148">
        <ele>2075</ele>
        <time>2022-06-09T17:22:41Z</time>
      </trkpt>
      <trkpt lat="45.2487" lon="6.50171">
        <ele>2083</ele>
        <time>2022-06-09T17:22:47Z</time>
      </trkpt>
      <trkpt lat="45.24874" lon="6.50195">
        <ele>2087</ele>
        <time>2022-06-09T17:22:51Z</time>
      </trkpt>
      <trkpt lat="45.24836" lon="6.50214">
        <ele>2085</ele>
        <time>2022-06-09T17:23:00Z</time>
      </trkpt>
      <trkpt lat="45.24808" lon="6.50242">
        <ele>2087</ele>
        <time>2022-06-09T17:23:08Z</time>
      </trkpt>
      <trkpt lat="45.24784" lon="6.50302">
        <ele>2092</ele>
        <time>2022-06-09T17:23:20Z</time>
      </trkpt>
      <trkpt lat="45.24785" lon="6.50327">
        <ele>2095</ele>
        <time>2022-06-09T17:23:24Z</time>
      </trkpt>
      <trkpt lat="45.24798" lon="6.50342">
        <ele>2098</ele>
        <time>2022-06-09T17:23:28Z</time>
      </trkpt>
      <trkpt lat="45.24816" lon="6.50373">
        <ele>2105</ele>
        <time>2022-06-09T17:23:34Z</time>
      </trkpt>
      <trkpt lat="45.24812" lon="6.50398">
        <ele>2109</ele>
        <time>2022-06-09T17:23:39Z</time>
      </trkpt>
      <trkpt lat="45.24797" lon="6.50417">
        <ele>2110</ele>
        <time>2022-06-09T17:23:43Z</time>
      </trkpt>
      <trkpt lat="45.24781" lon="6.50426">
        <ele>2111</ele>
        <time>2022-06-09T17:23:47Z</time>
      </trkpt>
      <trkpt lat="45.24756" lon="6.5045">
        <ele>2116</ele>
        <time>2022-06-09T17:23:54Z</time>
      </trkpt>
      <trkpt lat="45.24732" lon="6.50456">
        <ele>2116</ele>
        <time>2022-06-09T17:24:00Z</time>
      </trkpt>
      <trkpt lat="45.2472" lon="6.50465">
        <ele>2117</ele>
        <time>2022-06-09T17:24:03Z</time>
      </trkpt>
      <trkpt lat="45.24712" lon="6.50482">
        <ele>2121</ele>
        <time>2022-06-09T17:24:07Z</time>
      </trkpt>
      <trkpt lat="45.24703" lon="6.50545">
        <ele>2134</ele>
        <time>2022-06-09T17:24:17Z</time>
      </trkpt>
      <trkpt lat="45.247" lon="6.50552">
        <ele>2136</ele>
        <time>2022-06-09T17:24:19Z</time>
      </trkpt>
      <trkpt lat="45.24674" lon="6.5058">
        <ele>2141</ele>
        <time>2022-06-09T17:24:26Z</time>
      </trkpt>
      <trkpt lat="45.24662" lon="6.50587">
        <ele>2142</ele>
        <time>2022-06-09T17:24:29Z</time>
      </trkpt>
      <trkpt lat="45.24644" lon="6.50605">
        <ele>2147</ele>
        <time>2022-06-09T17:24:34Z</time>
      </trkpt>
      <trkpt lat="45.24629" lon="6.50612">
        <ele>2149</ele>
        <time>2022-06-09T17:24:38Z</time>
      </trkpt>
      <trkpt lat="45.24591" lon="6.50619">
        <ele>2151</ele>
        <time>2022-06-09T17:24:47Z</time>
      </trkpt>
      <trkpt lat="45.24573" lon="6.50614">
        <ele>2149</ele>
        <time>2022-06-09T17:24:51Z</time>
      </trkpt>
      <trkpt lat="45.24564" lon="6.50619">
        <ele>2149</ele>
        <time>2022-06-09T17:24:53Z</time>
      </trkpt>
      <trkpt lat="45.24551" lon="6.50664">
        <ele>2159</ele>
        <time>2022-06-09T17:25:01Z</time>
      </trkpt>
      <trkpt lat="45.24524" lon="6.50682">
        <ele>2158</ele>
        <time>2022-06-09T17:25:08Z</time>
      </trkpt>
      <trkpt lat="45.24522" lon="6.50708">
        <ele>2161</ele>
        <time>2022-06-09T17:25:13Z</time>
      </trkpt>
      <trkpt lat="45.24532" lon="6.50731">
        <ele>2166</ele>
        <time>2022-06-09T17:25:17Z</time>
      </trkpt>
      <trkpt lat="45.24534" lon="6.50729">
        <ele>2166</ele>
        <time>2022-06-09T17:25:18Z</time>
      </trkpt>
      <trkpt lat="45.24542" lon="6.50756">
        <ele>2172</ele>
        <time>2022-06-09T17:25:23Z</time>
      </trkpt>
      <trkpt lat="45.24545" lon="6.50793">
        <ele>2177</ele>
        <time>2022-06-09T17:25:29Z</time>
      </trkpt>
      <trkpt lat="45.24549" lon="6.508">
        <ele>2179</ele>
        <time>2022-06-09T17:25:30Z</time>
      </trkpt>
      <trkpt lat="45.24551" lon="6.50825">
        <ele>2183</ele>
        <time>2022-06-09T17:25:34Z</time>
      </trkpt>
      <trkpt lat="45.24554" lon="6.50826">
        <ele>2184</ele>
        <time>2022-06-09T17:25:35Z</time>
      </trkpt>
      <trkpt lat="45.24555" lon="6.50851">
        <ele>2187</ele>
        <time>2022-06-09T17:25:39Z</time>
      </trkpt>
      <trkpt lat="45.2456" lon="6.50879">
        <ele>2191</ele>
        <time>2022-06-09T17:25:44Z</time>
      </trkpt>
      <trkpt lat="45.2456" lon="6.50888">
        <ele>2192</ele>
        <time>2022-06-09T17:25:45Z</time>
      </trkpt>
      <trkpt lat="45.24553" lon="6.50907">
        <ele>2192</ele>
        <time>2022-06-09T17:25:49Z</time>
      </trkpt>
      <trkpt lat="45.24555" lon="6.50913">
        <ele>2193</ele>
        <time>2022-06-09T17:25:50Z</time>
      </trkpt>
      <trkpt lat="45.2456" lon="6.50916">
        <ele>2195</ele>
        <time>2022-06-09T17:25:51Z</time>
      </trkpt>
      <trkpt lat="45.24574" lon="6.50907">
        <ele>2197</ele>
        <time>2022-06-09T17:25:55Z</time>
      </trkpt>
      <trkpt lat="45.24597" lon="6.50835">
        <ele>2196</ele>
        <time>2022-06-09T17:26:08Z</time>
      </trkpt>
      <trkpt lat="45.24608" lon="6.50809">
        <ele>2194</ele>
        <time>2022-06-09T17:26:13Z</time>
      </trkpt>
      <trkpt lat="45.24616" lon="6.50799">
        <ele>2193</ele>
        <time>2022-06-09T17:26:15Z</time>
      </trkpt>
      <trkpt lat="45.24644" lon="6.50806">
        <ele>2199</ele>
        <time>2022-06-09T17:26:22Z</time>
      </trkpt>
      <trkpt lat="45.24656" lon="6.50806">
        <ele>2202</ele>
        <time>2022-06-09T17:26:25Z</time>
      </trkpt>
      <trkpt lat="45.24678" lon="6.50818">
        <ele>2206</ele>
        <time>2022-06-09T17:26:30Z</time>
      </trkpt>
      <trkpt lat="45.24688" lon="6.50837">
        <ele>2210</ele>
        <time>2022-06-09T17:26:34Z</time>
      </trkpt>
      <trkpt lat="45.24706" lon="6.50886">
        <ele>2217</ele>
        <time>2022-06-09T17:26:43Z</time>
      </trkpt>
      <trkpt lat="45.24722" lon="6.50917">
        <ele>2222</ele>
        <time>2022-06-09T17:26:50Z</time>
      </trkpt>
      <trkpt lat="45.24739" lon="6.5094">
        <ele>2225</ele>
        <time>2022-06-09T17:26:55Z</time>
      </trkpt>
      <trkpt lat="45.24764" lon="6.50964">
        <ele>2230</ele>
        <time>2022-06-09T17:27:02Z</time>
      </trkpt>
      <trkpt lat="45.24766" lon="6.50973">
        <ele>2231</ele>
        <time>2022-06-09T17:27:04Z</time>
      </trkpt>
      <trkpt lat="45.24764" lon="6.50984">
        <ele>2233</ele>
        <time>2022-06-09T17:27:06Z</time>
      </trkpt>
      <trkpt lat="45.24745" lon="6.50983">
        <ele>2233</ele>
        <time>2022-06-09T17:27:10Z</time>
      </trkpt>
      <trkpt lat="45.24722" lon="6.50977">
        <ele>2231</ele>
        <time>2022-06-09T17:27:15Z</time>
      </trkpt>
      <trkpt lat="45.24709" lon="6.50983">
        <ele>2232</ele>
        <time>2022-06-09T17:27:19Z</time>
      </trkpt>
      <trkpt lat="45.24695" lon="6.50996">
        <ele>2233</ele>
        <time>2022-06-09T17:27:23Z</time>
      </trkpt>
      <trkpt lat="45.2468" lon="6.51048">
        <ele>2240</ele>
        <time>2022-06-09T17:27:32Z</time>
      </trkpt>
      <trkpt lat="45.24687" lon="6.51067">
        <ele>2243</ele>
        <time>2022-06-09T17:27:35Z</time>
      </trkpt>
      <trkpt lat="45.24706" lon="6.51063">
        <ele>2244</ele>
        <time>2022-06-09T17:27:40Z</time>
      </trkpt>
      <trkpt lat="45.24724" lon="6.51076">
        <ele>2247</ele>
        <time>2022-06-09T17:27:44Z</time>
      </trkpt>
      <trkpt lat="45.24737" lon="6.511">
        <ele>2253</ele>
        <time>2022-06-09T17:27:49Z</time>
      </trkpt>
      <trkpt lat="45.24752" lon="6.51115">
        <ele>2257</ele>
        <time>2022-06-09T17:27:54Z</time>
      </trkpt>
      <trkpt lat="45.2476" lon="6.51127">
        <ele>2260</ele>
        <time>2022-06-09T17:27:56Z</time>
      </trkpt>
      <trkpt lat="45.24789" lon="6.51194">
        <ele>2274</ele>
        <time>2022-06-09T17:28:09Z</time>
      </trkpt>
      <trkpt lat="45.248" lon="6.51212">
        <ele>2278</ele>
        <time>2022-06-09T17:28:13Z</time>
      </trkpt>
      <trkpt lat="45.24818" lon="6.51223">
        <ele>2282</ele>
        <time>2022-06-09T17:28:18Z</time>
      </trkpt>
      <trkpt lat="45.24837" lon="6.51213">
        <ele>2283</ele>
        <time>2022-06-09T17:28:23Z</time>
      </trkpt>
      <trkpt lat="45.24855" lon="6.51195">
        <ele>2284</ele>
        <time>2022-06-09T17:28:28Z</time>
      </trkpt>
      <trkpt lat="45.24878" lon="6.51179">
        <ele>2286</ele>
        <time>2022-06-09T17:28:34Z</time>
      </trkpt>
      <trkpt lat="45.24939" lon="6.51141">
        <ele>2290</ele>
        <time>2022-06-09T17:28:49Z</time>
      </trkpt>
      <trkpt lat="45.24944" lon="6.51134">
        <ele>2290</ele>
        <time>2022-06-09T17:28:51Z</time>
      </trkpt>
      <trkpt lat="45.24984" lon="6.51112">
        <ele>2295</ele>
        <time>2022-06-09T17:29:01Z</time>
      </trkpt>
      <trkpt lat="45.25017" lon="6.51101">
        <ele>2301</ele>
        <time>2022-06-09T17:29:09Z</time>
      </trkpt>
      <trkpt lat="45.25061" lon="6.51078">
        <ele>2307</ele>
        <time>2022-06-09T17:29:20Z</time>
      </trkpt>
      <trkpt lat="45.25101" lon="6.51071">
        <ele>2313</ele>
        <time>2022-06-09T17:29:29Z</time>
      </trkpt>
      <trkpt lat="45.25141" lon="6.51069">
        <ele>2318</ele>
        <time>2022-06-09T17:29:39Z</time>
      </trkpt>
      <trkpt lat="45.25168" lon="6.51061">
        <ele>2320</ele>
        <time>2022-06-09T17:29:45Z</time>
      </trkpt>
      <trkpt lat="45.25187" lon="6.51067">
        <ele>2324</ele>
        <time>2022-06-09T17:29:50Z</time>
      </trkpt>
      <trkpt lat="45.25238" lon="6.51056">
        <ele>2329</ele>
        <time>2022-06-09T17:30:02Z</time>
      </trkpt>
      <trkpt lat="45.25261" lon="6.51057">
        <ele>2333</ele>
        <time>2022-06-09T17:30:07Z</time>
      </trkpt>
      <trkpt lat="45.25283" lon="6.51063">
        <ele>2337</ele>
        <time>2022-06-09T17:30:12Z</time>
      </trkpt>
      <trkpt lat="45.25289" lon="6.51078">
        <ele>2341</ele>
        <time>2022-06-09T17:30:15Z</time>
      </trkpt>
      <trkpt lat="45.25261" lon="6.51106">
        <ele>2341</ele>
        <time>2022-06-09T17:30:23Z</time>
      </trkpt>
      <trkpt lat="45.25244" lon="6.51117">
        <ele>2341</ele>
        <time>2022-06-09T17:30:27Z</time>
      </trkpt>
      <trkpt lat="45.25235" lon="6.51133">
        <ele>2343</ele>
        <time>2022-06-09T17:30:31Z</time>
      </trkpt>
      <trkpt lat="45.25233" lon="6.51151">
        <ele>2345</ele>
        <time>2022-06-09T17:30:34Z</time>
      </trkpt>
      <trkpt lat="45.25234" lon="6.51175">
        <ele>2350</ele>
        <time>2022-06-09T17:30:38Z</time>
      </trkpt>
      <trkpt lat="45.25237" lon="6.51188">
        <ele>2352</ele>
        <time>2022-06-09T17:30:40Z</time>
      </trkpt>
      <trkpt lat="45.2525" lon="6.51218">
        <ele>2358</ele>
        <time>2022-06-09T17:30:46Z</time>
      </trkpt>
      <trkpt lat="45.25265" lon="6.51244">
        <ele>2363</ele>
        <time>2022-06-09T17:30:51Z</time>
      </trkpt>
      <trkpt lat="45.25269" lon="6.51257">
        <ele>2365</ele>
        <time>2022-06-09T17:30:54Z</time>
      </trkpt>
      <trkpt lat="45.25265" lon="6.51274">
        <ele>2368</ele>
        <time>2022-06-09T17:30:57Z</time>
      </trkpt>
      <trkpt lat="45.25233" lon="6.51302">
        <ele>2373</ele>
        <time>2022-06-09T17:31:05Z</time>
      </trkpt>
      <trkpt lat="45.25206" lon="6.51313">
        <ele>2373</ele>
        <time>2022-06-09T17:31:12Z</time>
      </trkpt>
      <trkpt lat="45.25194" lon="6.51325">
        <ele>2375</ele>
        <time>2022-06-09T17:31:15Z</time>
      </trkpt>
      <trkpt lat="45.25188" lon="6.51338">
        <ele>2377</ele>
        <time>2022-06-09T17:31:18Z</time>
      </trkpt>
      <trkpt lat="45.25188" lon="6.51395">
        <ele>2387</ele>
        <time>2022-06-09T17:31:27Z</time>
      </trkpt>
      <trkpt lat="45.25185" lon="6.51406">
        <ele>2388</ele>
        <time>2022-06-09T17:31:29Z</time>
      </trkpt>
      <trkpt lat="45.25173" lon="6.51414">
        <ele>2389</ele>
        <time>2022-06-09T17:31:32Z</time>
      </trkpt>
      <trkpt lat="45.25153" lon="6.51421">
        <ele>2389</ele>
        <time>2022-06-09T17:31:37Z</time>
      </trkpt>
      <trkpt lat="45.25123" lon="6.51459">
        <ele>2393</ele>
        <time>2022-06-09T17:31:47Z</time>
      </trkpt>
      <trkpt lat="45.25123" lon="6.51476">
        <ele>2397</ele>
        <time>2022-06-09T17:31:49Z</time>
      </trkpt>
      <trkpt lat="45.25132" lon="6.51494">
        <ele>2401</ele>
        <time>2022-06-09T17:31:53Z</time>
      </trkpt>
      <trkpt lat="45.2517" lon="6.51526">
        <ele>2411</ele>
        <time>2022-06-09T17:32:03Z</time>
      </trkpt>
      <trkpt lat="45.25194" lon="6.51538">
        <ele>2414</ele>
        <time>2022-06-09T17:32:09Z</time>
      </trkpt>
      <trkpt lat="45.25197" lon="6.51554">
        <ele>2417</ele>
        <time>2022-06-09T17:32:12Z</time>
      </trkpt>
      <trkpt lat="45.25195" lon="6.51559">
        <ele>2418</ele>
        <time>2022-06-09T17:32:13Z</time>
      </trkpt>
      <trkpt lat="45.2518" lon="6.51568">
        <ele>2421</ele>
        <time>2022-06-09T17:32:17Z</time>
      </trkpt>
      <trkpt lat="45.25149" lon="6.51575">
        <ele>2423</ele>
        <time>2022-06-09T17:32:24Z</time>
      </trkpt>
      <trkpt lat="45.2511" lon="6.51607">
        <ele>2433</ele>
        <time>2022-06-09T17:32:35Z</time>
      </trkpt>
      <trkpt lat="45.25101" lon="6.51611">
        <ele>2434</ele>
        <time>2022-06-09T17:32:37Z</time>
      </trkpt>
      <trkpt lat="45.25085" lon="6.51615">
        <ele>2434</ele>
        <time>2022-06-09T17:32:41Z</time>
      </trkpt>
      <trkpt lat="45.25069" lon="6.51614">
        <ele>2432</ele>
        <time>2022-06-09T17:32:44Z</time>
      </trkpt>
      <trkpt lat="45.25056" lon="6.51617">
        <ele>2431</ele>
        <time>2022-06-09T17:32:47Z</time>
      </trkpt>
      <trkpt lat="45.25047" lon="6.51648">
        <ele>2440</ele>
        <time>2022-06-09T17:32:53Z</time>
      </trkpt>
      <trkpt lat="45.25035" lon="6.51664">
        <ele>2444</ele>
        <time>2022-06-09T17:32:57Z</time>
      </trkpt>
      <trkpt lat="45.25003" lon="6.51682">
        <ele>2446</ele>
        <time>2022-06-09T17:33:05Z</time>
      </trkpt>
      <trkpt lat="45.24995" lon="6.51689">
        <ele>2449</ele>
        <time>2022-06-09T17:33:07Z</time>
      </trkpt>
      <trkpt lat="45.24989" lon="6.51699">
        <ele>2453</ele>
        <time>2022-06-09T17:33:09Z</time>
      </trkpt>
      <trkpt lat="45.24973" lon="6.51704">
        <ele>2456</ele>
        <time>2022-06-09T17:33:13Z</time>
      </trkpt>
      <trkpt lat="45.2497" lon="6.51708">
        <ele>2458</ele>
        <time>2022-06-09T17:33:14Z</time>
      </trkpt>
      <trkpt lat="45.2497" lon="6.51721">
        <ele>2463</ele>
        <time>2022-06-09T17:33:16Z</time>
      </trkpt>
      <trkpt lat="45.24973" lon="6.51725">
        <ele>2464</ele>
        <time>2022-06-09T17:33:17Z</time>
      </trkpt>
      <trkpt lat="45.24987" lon="6.51733">
        <ele>2467</ele>
        <time>2022-06-09T17:33:20Z</time>
      </trkpt>
      <trkpt lat="45.24996" lon="6.51726">
        <ele>2464</ele>
        <time>2022-06-09T17:33:23Z</time>
      </trkpt>
      <trkpt lat="45.25015" lon="6.51723">
        <ele>2465</ele>
        <time>2022-06-09T17:33:27Z</time>
      </trkpt>
      <trkpt lat="45.25055" lon="6.5171">
        <ele>2465</ele>
        <time>2022-06-09T17:33:37Z</time>
      </trkpt>
      <trkpt lat="45.25085" lon="6.51694">
        <ele>2463</ele>
        <time>2022-06-09T17:33:44Z</time>
      </trkpt>
      <trkpt lat="45.25103" lon="6.5169">
        <ele>2462</ele>
        <time>2022-06-09T17:33:49Z</time>
      </trkpt>
      <trkpt lat="45.25125" lon="6.5169">
        <ele>2463</ele>
        <time>2022-06-09T17:33:54Z</time>
      </trkpt>
      <trkpt lat="45.25188" lon="6.51713">
        <ele>2476</ele>
        <time>2022-06-09T17:34:09Z</time>
      </trkpt>
      <trkpt lat="45.25186" lon="6.51727">
        <ele>2482</ele>
        <time>2022-06-09T17:34:11Z</time>
      </trkpt>
      <trkpt lat="45.25158" lon="6.51736">
        <ele>2485</ele>
        <time>2022-06-09T17:34:18Z</time>
      </trkpt>
      <trkpt lat="45.25143" lon="6.51735">
        <ele>2484</ele>
        <time>2022-06-09T17:34:22Z</time>
      </trkpt>
      <trkpt lat="45.25131" lon="6.51739">
        <ele>2485</ele>
        <time>2022-06-09T17:34:24Z</time>
      </trkpt>
      <trkpt lat="45.25126" lon="6.51745">
        <ele>2487</ele>
        <time>2022-06-09T17:34:26Z</time>
      </trkpt>
      <trkpt lat="45.25115" lon="6.51751">
        <ele>2489</ele>
        <time>2022-06-09T17:34:29Z</time>
      </trkpt>
      <trkpt lat="45.25085" lon="6.51776">
        <ele>2497</ele>
        <time>2022-06-09T17:34:37Z</time>
      </trkpt>
      <trkpt lat="45.25059" lon="6.51806">
        <ele>2504</ele>
        <time>2022-06-09T17:34:45Z</time>
      </trkpt>
      <trkpt lat="45.2505" lon="6.51813">
        <ele>2505</ele>
        <time>2022-06-09T17:34:47Z</time>
      </trkpt>
      <trkpt lat="45.2503" lon="6.51845">
        <ele>2514</ele>
        <time>2022-06-09T17:34:54Z</time>
      </trkpt>
      <trkpt lat="45.25018" lon="6.51853">
        <ele>2515</ele>
        <time>2022-06-09T17:34:57Z</time>
      </trkpt>
      <trkpt lat="45.24974" lon="6.51867">
        <ele>2517</ele>
        <time>2022-06-09T17:35:08Z</time>
      </trkpt>
      <trkpt lat="45.24947" lon="6.51881">
        <ele>2521</ele>
        <time>2022-06-09T17:35:14Z</time>
      </trkpt>
      <trkpt lat="45.24941" lon="6.51887">
        <ele>2523</ele>
        <time>2022-06-09T17:35:16Z</time>
      </trkpt>
      <trkpt lat="45.24938" lon="6.51899">
        <ele>2527</ele>
        <time>2022-06-09T17:35:18Z</time>
      </trkpt>
      <trkpt lat="45.24936" lon="6.51899">
        <ele>2527</ele>
        <time>2022-06-09T17:35:19Z</time>
      </trkpt>
      <trkpt lat="45.24925" lon="6.51923">
        <ele>2534</ele>
        <time>2022-06-09T17:35:23Z</time>
      </trkpt>
      <trkpt lat="45.24902" lon="6.51955">
        <ele>2543</ele>
        <time>2022-06-09T17:35:31Z</time>
      </trkpt>
      <trkpt lat="45.24874" lon="6.51944">
        <ele>2538</ele>
        <time>2022-06-09T17:35:38Z</time>
      </trkpt>
      <trkpt lat="45.24845" lon="6.51948">
        <ele>2537</ele>
        <time>2022-06-09T17:35:45Z</time>
      </trkpt>
      <trkpt lat="45.24833" lon="6.51958">
        <ele>2539</ele>
        <time>2022-06-09T17:35:48Z</time>
      </trkpt>
      <trkpt lat="45.24829" lon="6.51967">
        <ele>2540</ele>
        <time>2022-06-09T17:35:50Z</time>
      </trkpt>
      <trkpt lat="45.2482" lon="6.51978">
        <ele>2541</ele>
        <time>2022-06-09T17:35:52Z</time>
      </trkpt>
      <trkpt lat="45.24807" lon="6.52005">
        <ele>2545</ele>
        <time>2022-06-09T17:35:58Z</time>
      </trkpt>
      <trkpt lat="45.24794" lon="6.52041">
        <ele>2552</ele>
        <time>2022-06-09T17:36:04Z</time>
      </trkpt>
      <trkpt lat="45.2479" lon="6.5207">
        <ele>2558</ele>
        <time>2022-06-09T17:36:09Z</time>
      </trkpt>
      <trkpt lat="45.24779" lon="6.52088">
        <ele>2561</ele>
        <time>2022-06-09T17:36:13Z</time>
      </trkpt>
      <trkpt lat="45.24758" lon="6.52101">
        <ele>2560</ele>
        <time>2022-06-09T17:36:18Z</time>
      </trkpt>
      <trkpt lat="45.24756" lon="6.52117">
        <ele>2564</ele>
        <time>2022-06-09T17:36:21Z</time>
      </trkpt>
      <trkpt lat="45.24759" lon="6.52119">
        <ele>2566</ele>
        <time>2022-06-09T17:36:22Z</time>
      </trkpt>
      <trkpt lat="45.24771" lon="6.52124">
        <ele>2569</ele>
        <time>2022-06-09T17:36:25Z</time>
      </trkpt>
      <trkpt lat="45.2481" lon="6.52128">
        <ele>2578</ele>
        <time>2022-06-09T17:36:34Z</time>
      </trkpt>
      <trkpt lat="45.24894" lon="6.52148">
        <ele>2598</ele>
        <time>2022-06-09T17:36:54Z</time>
      </trkpt>
      <trkpt lat="45.24927" lon="6.52172">
        <ele>2611</ele>
        <time>2022-06-09T17:37:02Z</time>
      </trkpt>
      <trkpt lat="45.24936" lon="6.52176">
        <ele>2614</ele>
        <time>2022-06-09T17:37:05Z</time>
      </trkpt>
      <trkpt lat="45.24946" lon="6.52174">
        <ele>2616</ele>
        <time>2022-06-09T17:37:07Z</time>
      </trkpt>
      <trkpt lat="45.24982" lon="6.52124">
        <ele>2608</ele>
        <time>2022-06-09T17:37:19Z</time>
      </trkpt>
      <trkpt lat="45.24997" lon="6.52122">
        <ele>2611</ele>
        <time>2022-06-09T17:37:22Z</time>
      </trkpt>
      <trkpt lat="45.25006" lon="6.52125">
        <ele>2614</ele>
        <time>2022-06-09T17:37:24Z</time>
      </trkpt>
      <trkpt lat="45.25078" lon="6.52115">
        <ele>2625</ele>
        <time>2022-06-09T17:37:41Z</time>
      </trkpt>
      <trkpt lat="45.25141" lon="6.52143">
        <ele>2637</ele>
        <time>2022-06-09T17:37:57Z</time>
      </trkpt>
      <trkpt lat="45.25173" lon="6.52153">
        <ele>2642</ele>
        <time>2022-06-09T17:38:04Z</time>
      </trkpt>
      <trkpt lat="45.25176" lon="6.52152">
        <ele>2642</ele>
        <time>2022-06-09T17:38:05Z</time>
      </trkpt>
      <trkpt lat="45.25186" lon="6.52158">
        <ele>2644</ele>
        <time>2022-06-09T17:38:08Z</time>
      </trkpt>
      <trkpt lat="45.25208" lon="6.52164">
        <ele>2647</ele>
        <time>2022-06-09T17:38:13Z</time>
      </trkpt>
      <trkpt lat="45.25227" lon="6.52173">
        <ele>2650</ele>
        <time>2022-06-09T17:38:18Z</time>
      </trkpt>
      <trkpt lat="45.25269" lon="6.52179">
        <ele>2655</ele>
        <time>2022-06-09T17:38:27Z</time>
      </trkpt>
      <trkpt lat="45.253" lon="6.52197">
        <ele>2663</ele>
        <time>2022-06-09T17:38:35Z</time>
      </trkpt>
      <trkpt lat="45.25343" lon="6.52209">
        <ele>2667</ele>
        <time>2022-06-09T17:38:46Z</time>
      </trkpt>
      <trkpt lat="45.25367" lon="6.52225">
        <ele>2669</ele>
        <time>2022-06-09T17:38:52Z</time>
      </trkpt>
      <trkpt lat="45.25398" lon="6.52261">
        <ele>2677</ele>
        <time>2022-06-09T17:39:01Z</time>
      </trkpt>
      <trkpt lat="45.25406" lon="6.52276">
        <ele>2682</ele>
        <time>2022-06-09T17:39:04Z</time>
      </trkpt>
      <trkpt lat="45.25423" lon="6.52284">
        <ele>2683</ele>
        <time>2022-06-09T17:39:08Z</time>
      </trkpt>
      <trkpt lat="45.25441" lon="6.52287">
        <ele>2685</ele>
        <time>2022-06-09T17:39:13Z</time>
      </trkpt>
      <trkpt lat="45.25455" lon="6.52286">
        <ele>2684</ele>
        <time>2022-06-09T17:39:16Z</time>
      </trkpt>
      <trkpt lat="45.25468" lon="6.5229">
        <ele>2686</ele>
        <time>2022-06-09T17:39:19Z</time>
      </trkpt>
      <trkpt lat="45.25478" lon="6.52299">
        <ele>2690</ele>
        <time>2022-06-09T17:39:22Z</time>
      </trkpt>
      <trkpt lat="45.25489" lon="6.52304">
        <ele>2692</ele>
        <time>2022-06-09T17:39:24Z</time>
      </trkpt>
      <trkpt lat="45.25502" lon="6.52317">
        <ele>2698</ele>
        <time>2022-06-09T17:39:28Z</time>
      </trkpt>
      <trkpt lat="45.25527" lon="6.52312">
        <ele>2703</ele>
        <time>2022-06-09T17:39:34Z</time>
      </trkpt>
      <trkpt lat="45.25534" lon="6.52313">
        <ele>2705</ele>
        <time>2022-06-09T17:39:36Z</time>
      </trkpt>
      <trkpt lat="45.25625" lon="6.52273">
        <ele>2709</ele>
        <time>2022-06-09T17:39:58Z</time>
      </trkpt>
      <trkpt lat="45.25668" lon="6.5227">
        <ele>2717</ele>
        <time>2022-06-09T17:40:08Z</time>
      </trkpt>
      <trkpt lat="45.25688" lon="6.52271">
        <ele>2721</ele>
        <time>2022-06-09T17:40:13Z</time>
      </trkpt>
      <trkpt lat="45.25708" lon="6.52268">
        <ele>2723</ele>
        <time>2022-06-09T17:40:17Z</time>
      </trkpt>
      <trkpt lat="45.25741" lon="6.52252">
        <ele>2724</ele>
        <time>2022-06-09T17:40:25Z</time>
      </trkpt>
      <trkpt lat="45.25761" lon="6.52237">
        <ele>2724</ele>
        <time>2022-06-09T17:40:31Z</time>
      </trkpt>
      <trkpt lat="45.25775" lon="6.52239">
        <ele>2725</ele>
        <time>2022-06-09T17:40:34Z</time>
      </trkpt>
      <trkpt lat="45.258" lon="6.52255">
        <ele>2729</ele>
        <time>2022-06-09T17:40:40Z</time>
      </trkpt>
      <trkpt lat="45.25801" lon="6.52253">
        <ele>2728</ele>
        <time>2022-06-09T17:40:41Z</time>
      </trkpt>
      <trkpt lat="45.25799" lon="6.52254">
        <ele>2728</ele>
        <time>2022-06-09T17:40:41Z</time>
      </trkpt>
      <trkpt lat="45.25801" lon="6.52256">
        <ele>2729</ele>
        <time>2022-06-09T17:40:42Z</time>
      </trkpt>
      <trkpt lat="45.258" lon="6.52262">
        <ele>2730</ele>
        <time>2022-06-09T17:40:43Z</time>
      </trkpt>
      <trkpt lat="45.25801" lon="6.5226">
        <ele>2729</ele>
        <time>2022-06-09T17:40:43Z</time>
      </trkpt>
      <trkpt lat="45.25803" lon="6.52265">
        <ele>2730</ele>
        <time>2022-06-09T17:40:44Z</time>
      </trkpt>
      <trkpt lat="45.25802" lon="6.52263">
        <ele>2730</ele>
        <time>2022-06-09T17:40:45Z</time>
      </trkpt>
      <trkpt lat="45.25801" lon="6.52266">
        <ele>2730</ele>
        <time>2022-06-09T17:40:45Z</time>
      </trkpt>
      <trkpt lat="45.258" lon="6.52262">
        <ele>2730</ele>
        <time>2022-06-09T17:40:46Z</time>
      </trkpt>
      <trkpt lat="45.25801" lon="6.52265">
        <ele>2730</ele>
        <time>2022-06-09T17:40:46Z</time>
      </trkpt>
      <trkpt lat="45.258" lon="6.52262">
        <ele>2730</ele>
        <time>2022-06-09T17:40:47Z</time>
      </trkpt>
      <trkpt lat="45.25802" lon="6.52263">
        <ele>2730</ele>
        <time>2022-06-09T17:40:48Z</time>
      </trkpt>
      <trkpt lat="45.25801" lon="6.52265">
        <ele>2730</ele>
        <time>2022-06-09T17:40:48Z</time>
      </trkpt>
      <trkpt lat="45.25801" lon="6.52262">
        <ele>2730</ele>
        <time>2022-06-09T17:40:48Z</time>
      </trkpt>
      <trkpt lat="45.258" lon="6.52264">
        <ele>2730</ele>
        <time>2022-06-09T17:40:49Z</time>
      </trkpt>
      <trkpt lat="45.25814" lon="6.52262">
        <ele>2730</ele>
        <time>2022-06-09T17:40:52Z</time>
      </trkpt>
      <trkpt lat="45.25827" lon="6.5227">
        <ele>2731</ele>
        <time>2022-06-09T17:40:55Z</time>
      </trkpt>
      <trkpt lat="45.25846" lon="6.52287">
        <ele>2728</ele>
        <time>2022-06-09T17:41:01Z</time>
      </trkpt>
      <trkpt lat="45.25856" lon="6.5229">
        <ele>2726</ele>
        <time>2022-06-09T17:41:03Z</time>
      </trkpt>
      <trkpt lat="45.25875" lon="6.52289">
        <ele>2721</ele>
        <time>2022-06-09T17:41:07Z</time>
      </trkpt>
      <trkpt lat="45.25879" lon="6.52291">
        <ele>2720</ele>
        <time>2022-06-09T17:41:08Z</time>
      </trkpt>
      <trkpt lat="45.25895" lon="6.5229">
        <ele>2716</ele>
        <time>2022-06-09T17:41:12Z</time>
      </trkpt>
      <trkpt lat="45.25899" lon="6.52287">
        <ele>2715</ele>
        <time>2022-06-09T17:41:13Z</time>
      </trkpt>
      <trkpt lat="45.25905" lon="6.52289">
        <ele>2714</ele>
        <time>2022-06-09T17:41:15Z</time>
      </trkpt>
      <trkpt lat="45.25915" lon="6.52284">
        <ele>2712</ele>
        <time>2022-06-09T17:41:17Z</time>
      </trkpt>
      <trkpt lat="45.25923" lon="6.52286">
        <ele>2710</ele>
        <time>2022-06-09T17:41:19Z</time>
      </trkpt>
      <trkpt lat="45.25943" lon="6.523">
        <ele>2704</ele>
        <time>2022-06-09T17:41:24Z</time>
      </trkpt>
      <trkpt lat="45.25948" lon="6.5231">
        <ele>2701</ele>
        <time>2022-06-09T17:41:26Z</time>
      </trkpt>
      <trkpt lat="45.25967" lon="6.52314">
        <ele>2696</ele>
        <time>2022-06-09T17:41:31Z</time>
      </trkpt>
      <trkpt lat="45.25981" lon="6.52326">
        <ele>2690</ele>
        <time>2022-06-09T17:41:35Z</time>
      </trkpt>
      <trkpt lat="45.25987" lon="6.52327">
        <ele>2689</ele>
        <time>2022-06-09T17:41:36Z</time>
      </trkpt>
      <trkpt lat="45.25989" lon="6.52333">
        <ele>2687</ele>
        <time>2022-06-09T17:41:37Z</time>
      </trkpt>
      <trkpt lat="45.26" lon="6.52347">
        <ele>2683</ele>
        <time>2022-06-09T17:41:41Z</time>
      </trkpt>
      <trkpt lat="45.26003" lon="6.52359">
        <ele>2681</ele>
        <time>2022-06-09T17:41:43Z</time>
      </trkpt>
      <trkpt lat="45.26035" lon="6.52357">
        <ele>2674</ele>
        <time>2022-06-09T17:41:50Z</time>
      </trkpt>
      <trkpt lat="45.26042" lon="6.52362">
        <ele>2672</ele>
        <time>2022-06-09T17:41:52Z</time>
      </trkpt>
      <trkpt lat="45.26051" lon="6.52381">
        <ele>2667</ele>
        <time>2022-06-09T17:41:56Z</time>
      </trkpt>
      <trkpt lat="45.26053" lon="6.52381">
        <ele>2666</ele>
        <time>2022-06-09T17:41:56Z</time>
      </trkpt>
      <trkpt lat="45.26049" lon="6.52379">
        <ele>2668</ele>
        <time>2022-06-09T17:41:57Z</time>
      </trkpt>
      <trkpt lat="45.26055" lon="6.52394">
        <ele>2664</ele>
        <time>2022-06-09T17:42:00Z</time>
      </trkpt>
      <trkpt lat="45.26081" lon="6.52411">
        <ele>2655</ele>
        <time>2022-06-09T17:42:07Z</time>
      </trkpt>
      <trkpt lat="45.26128" lon="6.52414">
        <ele>2647</ele>
        <time>2022-06-09T17:42:18Z</time>
      </trkpt>
      <trkpt lat="45.26141" lon="6.52419">
        <ele>2644</ele>
        <time>2022-06-09T17:42:21Z</time>
      </trkpt>
      <trkpt lat="45.26158" lon="6.52418">
        <ele>2641</ele>
        <time>2022-06-09T17:42:25Z</time>
      </trkpt>
      <trkpt lat="45.26173" lon="6.52433">
        <ele>2638</ele>
        <time>2022-06-09T17:42:29Z</time>
      </trkpt>
      <trkpt lat="45.26227" lon="6.52442">
        <ele>2629</ele>
        <time>2022-06-09T17:42:42Z</time>
      </trkpt>
      <trkpt lat="45.26233" lon="6.52446">
        <ele>2628</ele>
        <time>2022-06-09T17:42:43Z</time>
      </trkpt>
      <trkpt lat="45.26255" lon="6.52445">
        <ele>2624</ele>
        <time>2022-06-09T17:42:48Z</time>
      </trkpt>
      <trkpt lat="45.26266" lon="6.52451">
        <ele>2622</ele>
        <time>2022-06-09T17:42:51Z</time>
      </trkpt>
      <trkpt lat="45.26289" lon="6.52448">
        <ele>2618</ele>
        <time>2022-06-09T17:42:57Z</time>
      </trkpt>
      <trkpt lat="45.26311" lon="6.52452">
        <ele>2613</ele>
        <time>2022-06-09T17:43:02Z</time>
      </trkpt>
      <trkpt lat="45.26348" lon="6.52466">
        <ele>2606</ele>
        <time>2022-06-09T17:43:11Z</time>
      </trkpt>
      <trkpt lat="45.26364" lon="6.52477">
        <ele>2602</ele>
        <time>2022-06-09T17:43:15Z</time>
      </trkpt>
      <trkpt lat="45.26371" lon="6.52473">
        <ele>2602</ele>
        <time>2022-06-09T17:43:17Z</time>
      </trkpt>
      <trkpt lat="45.2637" lon="6.52468">
        <ele>2603</ele>
        <time>2022-06-09T17:43:18Z</time>
      </trkpt>
      <trkpt lat="45.26388" lon="6.52466">
        <ele>2601</ele>
        <time>2022-06-09T17:43:22Z</time>
      </trkpt>
      <trkpt lat="45.26403" lon="6.52471">
        <ele>2598</ele>
        <time>2022-06-09T17:43:25Z</time>
      </trkpt>
      <trkpt lat="45.26428" lon="6.52472">
        <ele>2594</ele>
        <time>2022-06-09T17:43:31Z</time>
      </trkpt>
      <trkpt lat="45.26442" lon="6.52484">
        <ele>2590</ele>
        <time>2022-06-09T17:43:35Z</time>
      </trkpt>
      <trkpt lat="45.26463" lon="6.52484">
        <ele>2586</ele>
        <time>2022-06-09T17:43:40Z</time>
      </trkpt>
      <trkpt lat="45.26456" lon="6.52514">
        <ele>2581</ele>
        <time>2022-06-09T17:43:45Z</time>
      </trkpt>
      <trkpt lat="45.26464" lon="6.52522">
        <ele>2578</ele>
        <time>2022-06-09T17:43:47Z</time>
      </trkpt>
      <trkpt lat="45.26473" lon="6.52526">
        <ele>2575</ele>
        <time>2022-06-09T17:43:50Z</time>
      </trkpt>
      <trkpt lat="45.26478" lon="6.52533">
        <ele>2572</ele>
        <time>2022-06-09T17:43:51Z</time>
      </trkpt>
      <trkpt lat="45.26479" lon="6.52539">
        <ele>2571</ele>
        <time>2022-06-09T17:43:52Z</time>
      </trkpt>
      <trkpt lat="45.26486" lon="6.52545">
        <ele>2568</ele>
        <time>2022-06-09T17:43:54Z</time>
      </trkpt>
      <trkpt lat="45.26499" lon="6.52544">
        <ele>2565</ele>
        <time>2022-06-09T17:43:57Z</time>
      </trkpt>
      <trkpt lat="45.26502" lon="6.52548">
        <ele>2563</ele>
        <time>2022-06-09T17:43:58Z</time>
      </trkpt>
      <trkpt lat="45.26534" lon="6.52562">
        <ele>2554</ele>
        <time>2022-06-09T17:44:06Z</time>
      </trkpt>
      <trkpt lat="45.2655" lon="6.52575">
        <ele>2548</ele>
        <time>2022-06-09T17:44:10Z</time>
      </trkpt>
      <trkpt lat="45.26569" lon="6.5258">
        <ele>2544</ele>
        <time>2022-06-09T17:44:15Z</time>
      </trkpt>
      <trkpt lat="45.26573" lon="6.52577">
        <ele>2544</ele>
        <time>2022-06-09T17:44:16Z</time>
      </trkpt>
      <trkpt lat="45.26572" lon="6.52584">
        <ele>2543</ele>
        <time>2022-06-09T17:44:17Z</time>
      </trkpt>
      <trkpt lat="45.26607" lon="6.52585">
        <ele>2540</ele>
        <time>2022-06-09T17:44:25Z</time>
      </trkpt>
      <trkpt lat="45.26625" lon="6.52592">
        <ele>2538</ele>
        <time>2022-06-09T17:44:30Z</time>
      </trkpt>
      <trkpt lat="45.26646" lon="6.52594">
        <ele>2536</ele>
        <time>2022-06-09T17:44:34Z</time>
      </trkpt>
      <trkpt lat="45.26667" lon="6.52612">
        <ele>2531</ele>
        <time>2022-06-09T17:44:40Z</time>
      </trkpt>
      <trkpt lat="45.26671" lon="6.52618">
        <ele>2529</ele>
        <time>2022-06-09T17:44:42Z</time>
      </trkpt>
      <trkpt lat="45.26696" lon="6.52636">
        <ele>2524</ele>
        <time>2022-06-09T17:44:48Z</time>
      </trkpt>
      <trkpt lat="45.26714" lon="6.5264">
        <ele>2523</ele>
        <time>2022-06-09T17:44:52Z</time>
      </trkpt>
      <trkpt lat="45.26741" lon="6.52659">
        <ele>2516</ele>
        <time>2022-06-09T17:44:59Z</time>
      </trkpt>
      <trkpt lat="45.26754" lon="6.52678">
        <ele>2512</ele>
        <time>2022-06-09T17:45:04Z</time>
      </trkpt>
      <trkpt lat="45.26766" lon="6.52684">
        <ele>2510</ele>
        <time>2022-06-09T17:45:07Z</time>
      </trkpt>
      <trkpt lat="45.26764" lon="6.52687">
        <ele>2510</ele>
        <time>2022-06-09T17:45:07Z</time>
      </trkpt>
      <trkpt lat="45.26766" lon="6.5268">
        <ele>2511</ele>
        <time>2022-06-09T17:45:09Z</time>
      </trkpt>
      <trkpt lat="45.26766" lon="6.52683">
        <ele>2510</ele>
        <time>2022-06-09T17:45:09Z</time>
      </trkpt>
      <trkpt lat="45.26764" lon="6.52682">
        <ele>2511</ele>
        <time>2022-06-09T17:45:10Z</time>
      </trkpt>
      <trkpt lat="45.26785" lon="6.52683">
        <ele>2509</ele>
        <time>2022-06-09T17:45:15Z</time>
      </trkpt>
      <trkpt lat="45.26808" lon="6.52705">
        <ele>2503</ele>
        <time>2022-06-09T17:45:21Z</time>
      </trkpt>
      <trkpt lat="45.2683" lon="6.52712">
        <ele>2499</ele>
        <time>2022-06-09T17:45:26Z</time>
      </trkpt>
      <trkpt lat="45.26866" lon="6.52729">
        <ele>2498</ele>
        <time>2022-06-09T17:45:35Z</time>
      </trkpt>
      <trkpt lat="45.26898" lon="6.52762">
        <ele>2491</ele>
        <time>2022-06-09T17:45:44Z</time>
      </trkpt>
      <trkpt lat="45.26909" lon="6.52771">
        <ele>2489</ele>
        <time>2022-06-09T17:45:47Z</time>
      </trkpt>
      <trkpt lat="45.26922" lon="6.52777">
        <ele>2488</ele>
        <time>2022-06-09T17:45:51Z</time>
      </trkpt>
      <trkpt lat="45.26945" lon="6.52778">
        <ele>2490</ele>
        <time>2022-06-09T17:45:56Z</time>
      </trkpt>
      <trkpt lat="45.26947" lon="6.52774">
        <ele>2491</ele>
        <time>2022-06-09T17:45:57Z</time>
      </trkpt>
      <trkpt lat="45.26952" lon="6.52774">
        <ele>2491</ele>
        <time>2022-06-09T17:45:58Z</time>
      </trkpt>
      <trkpt lat="45.26969" lon="6.52776">
        <ele>2492</ele>
        <time>2022-06-09T17:46:02Z</time>
      </trkpt>
      <trkpt lat="45.26983" lon="6.52781">
        <ele>2492</ele>
        <time>2022-06-09T17:46:05Z</time>
      </trkpt>
      <trkpt lat="45.26996" lon="6.52777">
        <ele>2494</ele>
        <time>2022-06-09T17:46:08Z</time>
      </trkpt>
      <trkpt lat="45.27009" lon="6.52784">
        <ele>2493</ele>
        <time>2022-06-09T17:46:12Z</time>
      </trkpt>
      <trkpt lat="45.27014" lon="6.52792">
        <ele>2491</ele>
        <time>2022-06-09T17:46:13Z</time>
      </trkpt>
      <trkpt lat="45.27039" lon="6.52805">
        <ele>2489</ele>
        <time>2022-06-09T17:46:20Z</time>
      </trkpt>
      <trkpt lat="45.27065" lon="6.52811">
        <ele>2490</ele>
        <time>2022-06-09T17:46:26Z</time>
      </trkpt>
      <trkpt lat="45.27077" lon="6.5281">
        <ele>2491</ele>
        <time>2022-06-09T17:46:28Z</time>
      </trkpt>
      <trkpt lat="45.27105" lon="6.52815">
        <ele>2487</ele>
        <time>2022-06-09T17:46:35Z</time>
      </trkpt>
      <trkpt lat="45.27134" lon="6.52815">
        <ele>2482</ele>
        <time>2022-06-09T17:46:42Z</time>
      </trkpt>
      <trkpt lat="45.2714" lon="6.52812">
        <ele>2482</ele>
        <time>2022-06-09T17:46:43Z</time>
      </trkpt>
      <trkpt lat="45.27145" lon="6.52813">
        <ele>2481</ele>
        <time>2022-06-09T17:46:45Z</time>
      </trkpt>
      <trkpt lat="45.27169" lon="6.52807">
        <ele>2478</ele>
        <time>2022-06-09T17:46:50Z</time>
      </trkpt>
      <trkpt lat="45.27189" lon="6.52809">
        <ele>2479</ele>
        <time>2022-06-09T17:46:55Z</time>
      </trkpt>
      <trkpt lat="45.27237" lon="6.52801">
        <ele>2482</ele>
        <time>2022-06-09T17:47:06Z</time>
      </trkpt>
      <trkpt lat="45.27262" lon="6.52804">
        <ele>2482</ele>
        <time>2022-06-09T17:47:12Z</time>
      </trkpt>
      <trkpt lat="45.27274" lon="6.52809">
        <ele>2481</ele>
        <time>2022-06-09T17:47:15Z</time>
      </trkpt>
      <trkpt lat="45.27288" lon="6.52811">
        <ele>2480</ele>
        <time>2022-06-09T17:47:18Z</time>
      </trkpt>
      <trkpt lat="45.273" lon="6.52817">
        <ele>2479</ele>
        <time>2022-06-09T17:47:21Z</time>
      </trkpt>
      <trkpt lat="45.2733" lon="6.52804">
        <ele>2477</ele>
        <time>2022-06-09T17:47:29Z</time>
      </trkpt>
      <trkpt lat="45.27339" lon="6.52807">
        <ele>2476</ele>
        <time>2022-06-09T17:47:31Z</time>
      </trkpt>
      <trkpt lat="45.27361" lon="6.52794">
        <ele>2472</ele>
        <time>2022-06-09T17:47:36Z</time>
      </trkpt>
      <trkpt lat="45.27378" lon="6.52787">
        <ele>2469</ele>
        <time>2022-06-09T17:47:40Z</time>
      </trkpt>
      <trkpt lat="45.27387" lon="6.52778">
        <ele>2467</ele>
        <time>2022-06-09T17:47:43Z</time>
      </trkpt>
      <trkpt lat="45.27392" lon="6.52763">
        <ele>2465</ele>
        <time>2022-06-09T17:47:46Z</time>
      </trkpt>
      <trkpt lat="45.2741" lon="6.5275">
        <ele>2459</ele>
        <time>2022-06-09T17:47:50Z</time>
      </trkpt>
      <trkpt lat="45.27418" lon="6.52748">
        <ele>2457</ele>
        <time>2022-06-09T17:47:52Z</time>
      </trkpt>
      <trkpt lat="45.27426" lon="6.52752">
        <ele>2458</ele>
        <time>2022-06-09T17:47:54Z</time>
      </trkpt>
      <trkpt lat="45.27428" lon="6.52734">
        <ele>2453</ele>
        <time>2022-06-09T17:47:57Z</time>
      </trkpt>
      <trkpt lat="45.27438" lon="6.52724">
        <ele>2450</ele>
        <time>2022-06-09T17:48:00Z</time>
      </trkpt>
      <trkpt lat="45.27434" lon="6.52706">
        <ele>2445</ele>
        <time>2022-06-09T17:48:03Z</time>
      </trkpt>
      <trkpt lat="45.27435" lon="6.52702">
        <ele>2444</ele>
        <time>2022-06-09T17:48:04Z</time>
      </trkpt>
      <trkpt lat="45.27411" lon="6.52674">
        <ele>2439</ele>
        <time>2022-06-09T17:48:11Z</time>
      </trkpt>
      <trkpt lat="45.27405" lon="6.52658">
        <ele>2438</ele>
        <time>2022-06-09T17:48:14Z</time>
      </trkpt>
      <trkpt lat="45.27402" lon="6.52658">
        <ele>2439</ele>
        <time>2022-06-09T17:48:15Z</time>
      </trkpt>
      <trkpt lat="45.27404" lon="6.52654">
        <ele>2438</ele>
        <time>2022-06-09T17:48:16Z</time>
      </trkpt>
      <trkpt lat="45.27401" lon="6.52646">
        <ele>2437</ele>
        <time>2022-06-09T17:48:17Z</time>
      </trkpt>
      <trkpt lat="45.2741" lon="6.52629">
        <ele>2432</ele>
        <time>2022-06-09T17:48:21Z</time>
      </trkpt>
      <trkpt lat="45.27433" lon="6.52614">
        <ele>2427</ele>
        <time>2022-06-09T17:48:27Z</time>
      </trkpt>
      <trkpt lat="45.27435" lon="6.52608">
        <ele>2426</ele>
        <time>2022-06-09T17:48:28Z</time>
      </trkpt>
      <trkpt lat="45.27432" lon="6.52605">
        <ele>2426</ele>
        <time>2022-06-09T17:48:29Z</time>
      </trkpt>
      <trkpt lat="45.27432" lon="6.52607">
        <ele>2426</ele>
        <time>2022-06-09T17:48:29Z</time>
      </trkpt>
      <trkpt lat="45.27435" lon="6.52607">
        <ele>2426</ele>
        <time>2022-06-09T17:48:30Z</time>
      </trkpt>
      <trkpt lat="45.27435" lon="6.52604">
        <ele>2426</ele>
        <time>2022-06-09T17:48:30Z</time>
      </trkpt>
      <trkpt lat="45.27433" lon="6.52604">
        <ele>2426</ele>
        <time>2022-06-09T17:48:31Z</time>
      </trkpt>
      <trkpt lat="45.27435" lon="6.52598">
        <ele>2425</ele>
        <time>2022-06-09T17:48:32Z</time>
      </trkpt>
      <trkpt lat="45.27433" lon="6.52606">
        <ele>2426</ele>
        <time>2022-06-09T17:48:33Z</time>
      </trkpt>
      <trkpt lat="45.27431" lon="6.52602">
        <ele>2426</ele>
        <time>2022-06-09T17:48:34Z</time>
      </trkpt>
      <trkpt lat="45.27434" lon="6.52603">
        <ele>2426</ele>
        <time>2022-06-09T17:48:35Z</time>
      </trkpt>
      <trkpt lat="45.27436" lon="6.52608">
        <ele>2426</ele>
        <time>2022-06-09T17:48:35Z</time>
      </trkpt>
      <trkpt lat="45.27434" lon="6.52609">
        <ele>2427</ele>
        <time>2022-06-09T17:48:36Z</time>
      </trkpt>
      <trkpt lat="45.27446" lon="6.52602">
        <ele>2425</ele>
        <time>2022-06-09T17:48:39Z</time>
      </trkpt>
      <trkpt lat="45.27452" lon="6.52601">
        <ele>2425</ele>
        <time>2022-06-09T17:48:40Z</time>
      </trkpt>
      <trkpt lat="45.27467" lon="6.52588">
        <ele>2423</ele>
        <time>2022-06-09T17:48:45Z</time>
      </trkpt>
      <trkpt lat="45.27481" lon="6.52583">
        <ele>2422</ele>
        <time>2022-06-09T17:48:48Z</time>
      </trkpt>
      <trkpt lat="45.2748" lon="6.52564">
        <ele>2422</ele>
        <time>2022-06-09T17:48:51Z</time>
      </trkpt>
      <trkpt lat="45.27492" lon="6.52538">
        <ele>2421</ele>
        <time>2022-06-09T17:48:56Z</time>
      </trkpt>
      <trkpt lat="45.27494" lon="6.52527">
        <ele>2421</ele>
        <time>2022-06-09T17:48:58Z</time>
      </trkpt>
      <trkpt lat="45.2751" lon="6.52484">
        <ele>2419</ele>
        <time>2022-06-09T17:49:06Z</time>
      </trkpt>
      <trkpt lat="45.27508" lon="6.52457">
        <ele>2420</ele>
        <time>2022-06-09T17:49:10Z</time>
      </trkpt>
      <trkpt lat="45.27522" lon="6.52395">
        <ele>2417</ele>
        <time>2022-06-09T17:49:21Z</time>
      </trkpt>
      <trkpt lat="45.27521" lon="6.52379">
        <ele>2417</ele>
        <time>2022-06-09T17:49:24Z</time>
      </trkpt>
      <trkpt lat="45.27523" lon="6.52373">
        <ele>2416</ele>
        <time>2022-06-09T17:49:25Z</time>
      </trkpt>
      <trkpt lat="45.27529" lon="6.52367">
        <ele>2414</ele>
        <time>2022-06-09T17:49:27Z</time>
      </trkpt>
      <trkpt lat="45.27529" lon="6.52363">
        <ele>2414</ele>
        <time>2022-06-09T17:49:27Z</time>
      </trkpt>
      <trkpt lat="45.27548" lon="6.52359">
        <ele>2409</ele>
        <time>2022-06-09T17:49:32Z</time>
      </trkpt>
      <trkpt lat="45.27552" lon="6.52355">
        <ele>2408</ele>
        <time>2022-06-09T17:49:33Z</time>
      </trkpt>
      <trkpt lat="45.27553" lon="6.52357">
        <ele>2408</ele>
        <time>2022-06-09T17:49:33Z</time>
      </trkpt>
      <trkpt lat="45.27561" lon="6.52351">
        <ele>2405</ele>
        <time>2022-06-09T17:49:35Z</time>
      </trkpt>
      <trkpt lat="45.27567" lon="6.52341">
        <ele>2402</ele>
        <time>2022-06-09T17:49:38Z</time>
      </trkpt>
      <trkpt lat="45.27579" lon="6.52334">
        <ele>2397</ele>
        <time>2022-06-09T17:49:41Z</time>
      </trkpt>
      <trkpt lat="45.27595" lon="6.52314">
        <ele>2393</ele>
        <time>2022-06-09T17:49:46Z</time>
      </trkpt>
      <trkpt lat="45.27609" lon="6.52321">
        <ele>2390</ele>
        <time>2022-06-09T17:49:49Z</time>
      </trkpt>
      <trkpt lat="45.27611" lon="6.52318">
        <ele>2390</ele>
        <time>2022-06-09T17:49:50Z</time>
      </trkpt>
      <trkpt lat="45.2761" lon="6.52322">
        <ele>2390</ele>
        <time>2022-06-09T17:49:50Z</time>
      </trkpt>
      <trkpt lat="45.27611" lon="6.52319">
        <ele>2390</ele>
        <time>2022-06-09T17:49:51Z</time>
      </trkpt>
      <trkpt lat="45.27608" lon="6.52318">
        <ele>2390</ele>
        <time>2022-06-09T17:49:52Z</time>
      </trkpt>
      <trkpt lat="45.27644" lon="6.52335">
        <ele>2381</ele>
        <time>2022-06-09T17:50:01Z</time>
      </trkpt>
      <trkpt lat="45.2766" lon="6.52338">
        <ele>2377</ele>
        <time>2022-06-09T17:50:04Z</time>
      </trkpt>
      <trkpt lat="45.27707" lon="6.5237">
        <ele>2370</ele>
        <time>2022-06-09T17:50:16Z</time>
      </trkpt>
      <trkpt lat="45.27724" lon="6.52377">
        <ele>2366</ele>
        <time>2022-06-09T17:50:21Z</time>
      </trkpt>
      <trkpt lat="45.27736" lon="6.52385">
        <ele>2363</ele>
        <time>2022-06-09T17:50:24Z</time>
      </trkpt>
      <trkpt lat="45.27763" lon="6.52389">
        <ele>2355</ele>
        <time>2022-06-09T17:50:30Z</time>
      </trkpt>
      <trkpt lat="45.27765" lon="6.52394">
        <ele>2355</ele>
        <time>2022-06-09T17:50:31Z</time>
      </trkpt>
      <trkpt lat="45.27776" lon="6.52398">
        <ele>2352</ele>
        <time>2022-06-09T17:50:34Z</time>
      </trkpt>
      <trkpt lat="45.27791" lon="6.52391">
        <ele>2347</ele>
        <time>2022-06-09T17:50:37Z</time>
      </trkpt>
      <trkpt lat="45.27794" lon="6.52392">
        <ele>2346</ele>
        <time>2022-06-09T17:50:38Z</time>
      </trkpt>
      <trkpt lat="45.27799" lon="6.52377">
        <ele>2344</ele>
        <time>2022-06-09T17:50:41Z</time>
      </trkpt>
      <trkpt lat="45.27817" lon="6.52382">
        <ele>2339</ele>
        <time>2022-06-09T17:50:45Z</time>
      </trkpt>
      <trkpt lat="45.27823" lon="6.52388">
        <ele>2338</ele>
        <time>2022-06-09T17:50:47Z</time>
      </trkpt>
      <trkpt lat="45.27826" lon="6.52388">
        <ele>2337</ele>
        <time>2022-06-09T17:50:47Z</time>
      </trkpt>
      <trkpt lat="45.27835" lon="6.52383">
        <ele>2334</ele>
        <time>2022-06-09T17:50:50Z</time>
      </trkpt>
      <trkpt lat="45.27841" lon="6.52365">
        <ele>2332</ele>
        <time>2022-06-09T17:50:53Z</time>
      </trkpt>
      <trkpt lat="45.27847" lon="6.52369">
        <ele>2331</ele>
        <time>2022-06-09T17:50:55Z</time>
      </trkpt>
      <trkpt lat="45.27862" lon="6.52369">
        <ele>2327</ele>
        <time>2022-06-09T17:50:58Z</time>
      </trkpt>
      <trkpt lat="45.27869" lon="6.52362">
        <ele>2325</ele>
        <time>2022-06-09T17:51:00Z</time>
      </trkpt>
      <trkpt lat="45.27877" lon="6.52367">
        <ele>2324</ele>
        <time>2022-06-09T17:51:02Z</time>
      </trkpt>
      <trkpt lat="45.27884" lon="6.52366">
        <ele>2322</ele>
        <time>2022-06-09T17:51:04Z</time>
      </trkpt>
      <trkpt lat="45.27911" lon="6.5235">
        <ele>2314</ele>
        <time>2022-06-09T17:51:11Z</time>
      </trkpt>
      <trkpt lat="45.27938" lon="6.5234">
        <ele>2311</ele>
        <time>2022-06-09T17:51:17Z</time>
      </trkpt>
      <trkpt lat="45.27945" lon="6.52332">
        <ele>2310</ele>
        <time>2022-06-09T17:51:19Z</time>
      </trkpt>
      <trkpt lat="45.27958" lon="6.52326">
        <ele>2309</ele>
        <time>2022-06-09T17:51:22Z</time>
      </trkpt>
      <trkpt lat="45.27955" lon="6.52325">
        <ele>2310</ele>
        <time>2022-06-09T17:51:23Z</time>
      </trkpt>
      <trkpt lat="45.27951" lon="6.52314">
        <ele>2310</ele>
        <time>2022-06-09T17:51:25Z</time>
      </trkpt>
      <trkpt lat="45.27954" lon="6.52311">
        <ele>2310</ele>
        <time>2022-06-09T17:51:26Z</time>
      </trkpt>
      <trkpt lat="45.27976" lon="6.52302">
        <ele>2309</ele>
        <time>2022-06-09T17:51:31Z</time>
      </trkpt>
      <trkpt lat="45.28009" lon="6.52302">
        <ele>2306</ele>
        <time>2022-06-09T17:51:39Z</time>
      </trkpt>
      <trkpt lat="45.28014" lon="6.52297">
        <ele>2306</ele>
        <time>2022-06-09T17:51:40Z</time>
      </trkpt>
      <trkpt lat="45.2802" lon="6.52285">
        <ele>2305</ele>
        <time>2022-06-09T17:51:43Z</time>
      </trkpt>
      <trkpt lat="45.28023" lon="6.52272">
        <ele>2305</ele>
        <time>2022-06-09T17:51:45Z</time>
      </trkpt>
      <trkpt lat="45.28029" lon="6.52264">
        <ele>2305</ele>
        <time>2022-06-09T17:51:47Z</time>
      </trkpt>
      <trkpt lat="45.28032" lon="6.52246">
        <ele>2305</ele>
        <time>2022-06-09T17:51:50Z</time>
      </trkpt>
      <trkpt lat="45.28025" lon="6.5221">
        <ele>2304</ele>
        <time>2022-06-09T17:51:56Z</time>
      </trkpt>
      <trkpt lat="45.28025" lon="6.52214">
        <ele>2304</ele>
        <time>2022-06-09T17:51:57Z</time>
      </trkpt>
      <trkpt lat="45.28027" lon="6.52213">
        <ele>2304</ele>
        <time>2022-06-09T17:51:57Z</time>
      </trkpt>
      <trkpt lat="45.28025" lon="6.5221">
        <ele>2304</ele>
        <time>2022-06-09T17:51:58Z</time>
      </trkpt>
      <trkpt lat="45.28026" lon="6.52206">
        <ele>2304</ele>
        <time>2022-06-09T17:51:59Z</time>
      </trkpt>
      <trkpt lat="45.28034" lon="6.52199">
        <ele>2303</ele>
        <time>2022-06-09T17:52:01Z</time>
      </trkpt>
      <trkpt lat="45.28038" lon="6.52191">
        <ele>2303</ele>
        <time>2022-06-09T17:52:03Z</time>
      </trkpt>
      <trkpt lat="45.28045" lon="6.5219">
        <ele>2302</ele>
        <time>2022-06-09T17:52:04Z</time>
      </trkpt>
      <trkpt lat="45.28047" lon="6.5218">
        <ele>2302</ele>
        <time>2022-06-09T17:52:06Z</time>
      </trkpt>
      <trkpt lat="45.28043" lon="6.52176">
        <ele>2302</ele>
        <time>2022-06-09T17:52:07Z</time>
      </trkpt>
      <trkpt lat="45.28023" lon="6.52167">
        <ele>2303</ele>
        <time>2022-06-09T17:52:12Z</time>
      </trkpt>
      <trkpt lat="45.28016" lon="6.52154">
        <ele>2305</ele>
        <time>2022-06-09T17:52:15Z</time>
      </trkpt>
      <trkpt lat="45.28002" lon="6.5215">
        <ele>2306</ele>
        <time>2022-06-09T17:52:18Z</time>
      </trkpt>
      <trkpt lat="45.27994" lon="6.52143">
        <ele>2309</ele>
        <time>2022-06-09T17:52:20Z</time>
      </trkpt>
      <trkpt lat="45.27972" lon="6.52154">
        <ele>2312</ele>
        <time>2022-06-09T17:52:26Z</time>
      </trkpt>
      <trkpt lat="45.27957" lon="6.52155">
        <ele>2315</ele>
        <time>2022-06-09T17:52:29Z</time>
      </trkpt>
      <trkpt lat="45.27958" lon="6.52153">
        <ele>2315</ele>
        <time>2022-06-09T17:52:30Z</time>
      </trkpt>
      <trkpt lat="45.27971" lon="6.52161">
        <ele>2312</ele>
        <time>2022-06-09T17:52:33Z</time>
      </trkpt>
      <trkpt lat="45.28014" lon="6.52175">
        <ele>2304</ele>
        <time>2022-06-09T17:52:43Z</time>
      </trkpt>
      <trkpt lat="45.28031" lon="6.52172">
        <ele>2303</ele>
        <time>2022-06-09T17:52:47Z</time>
      </trkpt>
      <trkpt lat="45.28033" lon="6.52168">
        <ele>2302</ele>
        <time>2022-06-09T17:52:48Z</time>
      </trkpt>
      <trkpt lat="45.28039" lon="6.52175">
        <ele>2302</ele>
        <time>2022-06-09T17:52:50Z</time>
      </trkpt>
      <trkpt lat="45.28043" lon="6.52187">
        <ele>2302</ele>
        <time>2022-06-09T17:52:52Z</time>
      </trkpt>
      <trkpt lat="45.28048" lon="6.5219">
        <ele>2302</ele>
        <time>2022-06-09T17:52:53Z</time>
      </trkpt>
      <trkpt lat="45.28049" lon="6.52184">
        <ele>2302</ele>
        <time>2022-06-09T17:52:54Z</time>
      </trkpt>
      <trkpt lat="45.28054" lon="6.52182">
        <ele>2301</ele>
        <time>2022-06-09T17:52:55Z</time>
      </trkpt>
      <trkpt lat="45.28069" lon="6.52183">
        <ele>2300</ele>
        <time>2022-06-09T17:52:59Z</time>
      </trkpt>
      <trkpt lat="45.28078" lon="6.52179">
        <ele>2299</ele>
        <time>2022-06-09T17:53:01Z</time>
      </trkpt>
      <trkpt lat="45.28099" lon="6.52149">
        <ele>2293</ele>
        <time>2022-06-09T17:53:08Z</time>
      </trkpt>
      <trkpt lat="45.28095" lon="6.52173">
        <ele>2293</ele>
        <time>2022-06-09T17:53:12Z</time>
      </trkpt>
      <trkpt lat="45.281" lon="6.52171">
        <ele>2290</ele>
        <time>2022-06-09T17:53:13Z</time>
      </trkpt>
      <trkpt lat="45.28106" lon="6.52164">
        <ele>2288</ele>
        <time>2022-06-09T17:53:15Z</time>
      </trkpt>
      <trkpt lat="45.28107" lon="6.52161">
        <ele>2288</ele>
        <time>2022-06-09T17:53:16Z</time>
      </trkpt>
      <trkpt lat="45.28104" lon="6.52158">
        <ele>2290</ele>
        <time>2022-06-09T17:53:17Z</time>
      </trkpt>
      <trkpt lat="45.28107" lon="6.52161">
        <ele>2288</ele>
        <time>2022-06-09T17:53:17Z</time>
      </trkpt>
      <trkpt lat="45.28113" lon="6.52156">
        <ele>2286</ele>
        <time>2022-06-09T17:53:19Z</time>
      </trkpt>
      <trkpt lat="45.28134" lon="6.52147">
        <ele>2278</ele>
        <time>2022-06-09T17:53:24Z</time>
      </trkpt>
      <trkpt lat="45.28148" lon="6.52146">
        <ele>2272</ele>
        <time>2022-06-09T17:53:27Z</time>
      </trkpt>
      <trkpt lat="45.28164" lon="6.52137">
        <ele>2267</ele>
        <time>2022-06-09T17:53:31Z</time>
      </trkpt>
      <trkpt lat="45.28167" lon="6.52139">
        <ele>2265</ele>
        <time>2022-06-09T17:53:32Z</time>
      </trkpt>
      <trkpt lat="45.28175" lon="6.52137">
        <ele>2263</ele>
        <time>2022-06-09T17:53:34Z</time>
      </trkpt>
      <trkpt lat="45.28188" lon="6.52131">
        <ele>2260</ele>
        <time>2022-06-09T17:53:37Z</time>
      </trkpt>
      <trkpt lat="45.28188" lon="6.52129">
        <ele>2261</ele>
        <time>2022-06-09T17:53:38Z</time>
      </trkpt>
      <trkpt lat="45.2819" lon="6.5213">
        <ele>2260</ele>
        <time>2022-06-09T17:53:38Z</time>
      </trkpt>
      <trkpt lat="45.28189" lon="6.52136">
        <ele>2259</ele>
        <time>2022-06-09T17:53:39Z</time>
      </trkpt>
      <trkpt lat="45.28198" lon="6.52137">
        <ele>2256</ele>
        <time>2022-06-09T17:53:41Z</time>
      </trkpt>
      <trkpt lat="45.28206" lon="6.52133">
        <ele>2254</ele>
        <time>2022-06-09T17:53:43Z</time>
      </trkpt>
      <trkpt lat="45.28206" lon="6.52136">
        <ele>2253</ele>
        <time>2022-06-09T17:53:44Z</time>
      </trkpt>
      <trkpt lat="45.28205" lon="6.52128">
        <ele>2255</ele>
        <time>2022-06-09T17:53:45Z</time>
      </trkpt>
      <trkpt lat="45.28207" lon="6.52125">
        <ele>2255</ele>
        <time>2022-06-09T17:53:46Z</time>
      </trkpt>
      <trkpt lat="45.28206" lon="6.52133">
        <ele>2254</ele>
        <time>2022-06-09T17:53:47Z</time>
      </trkpt>
      <trkpt lat="45.28209" lon="6.52141">
        <ele>2251</ele>
        <time>2022-06-09T17:53:49Z</time>
      </trkpt>
      <trkpt lat="45.28221" lon="6.52141">
        <ele>2247</ele>
        <time>2022-06-09T17:53:51Z</time>
      </trkpt>
      <trkpt lat="45.28242" lon="6.52175">
        <ele>2234</ele>
        <time>2022-06-09T17:53:59Z</time>
      </trkpt>
      <trkpt lat="45.28266" lon="6.52193">
        <ele>2229</ele>
        <time>2022-06-09T17:54:05Z</time>
      </trkpt>
      <trkpt lat="45.28279" lon="6.5219">
        <ele>2230</ele>
        <time>2022-06-09T17:54:08Z</time>
      </trkpt>
      <trkpt lat="45.2828" lon="6.52202">
        <ele>2227</ele>
        <time>2022-06-09T17:54:10Z</time>
      </trkpt>
      <trkpt lat="45.28287" lon="6.52209">
        <ele>2226</ele>
        <time>2022-06-09T17:54:12Z</time>
      </trkpt>
      <trkpt lat="45.28287" lon="6.52229">
        <ele>2221</ele>
        <time>2022-06-09T17:54:15Z</time>
      </trkpt>
      <trkpt lat="45.28291" lon="6.52239">
        <ele>2219</ele>
        <time>2022-06-09T17:54:17Z</time>
      </trkpt>
      <trkpt lat="45.28294" lon="6.52244">
        <ele>2217</ele>
        <time>2022-06-09T17:54:18Z</time>
      </trkpt>
      <trkpt lat="45.28306" lon="6.52249">
        <ele>2215</ele>
        <time>2022-06-09T17:54:21Z</time>
      </trkpt>
      <trkpt lat="45.28319" lon="6.52259">
        <ele>2211</ele>
        <time>2022-06-09T17:54:25Z</time>
      </trkpt>
      <trkpt lat="45.28324" lon="6.52276">
        <ele>2208</ele>
        <time>2022-06-09T17:54:28Z</time>
      </trkpt>
      <trkpt lat="45.28328" lon="6.52276">
        <ele>2207</ele>
        <time>2022-06-09T17:54:29Z</time>
      </trkpt>
      <trkpt lat="45.28341" lon="6.52287">
        <ele>2203</ele>
        <time>2022-06-09T17:54:32Z</time>
      </trkpt>
      <trkpt lat="45.28369" lon="6.52286">
        <ele>2202</ele>
        <time>2022-06-09T17:54:39Z</time>
      </trkpt>
      <trkpt lat="45.28382" lon="6.52291">
        <ele>2199</ele>
        <time>2022-06-09T17:54:42Z</time>
      </trkpt>
      <trkpt lat="45.28388" lon="6.52297">
        <ele>2196</ele>
        <time>2022-06-09T17:54:44Z</time>
      </trkpt>
      <trkpt lat="45.28388" lon="6.52303">
        <ele>2194</ele>
        <time>2022-06-09T17:54:45Z</time>
      </trkpt>
      <trkpt lat="45.28392" lon="6.52306">
        <ele>2192</ele>
        <time>2022-06-09T17:54:46Z</time>
      </trkpt>
      <trkpt lat="45.28398" lon="6.52304">
        <ele>2192</ele>
        <time>2022-06-09T17:54:47Z</time>
      </trkpt>
      <trkpt lat="45.284" lon="6.52306">
        <ele>2191</ele>
        <time>2022-06-09T17:54:48Z</time>
      </trkpt>
      <trkpt lat="45.28398" lon="6.52309">
        <ele>2190</ele>
        <time>2022-06-09T17:54:48Z</time>
      </trkpt>
      <trkpt lat="45.28399" lon="6.52313">
        <ele>2188</ele>
        <time>2022-06-09T17:54:49Z</time>
      </trkpt>
      <trkpt lat="45.2841" lon="6.52324">
        <ele>2181</ele>
        <time>2022-06-09T17:54:52Z</time>
      </trkpt>
      <trkpt lat="45.28412" lon="6.5233">
        <ele>2178</ele>
        <time>2022-06-09T17:54:53Z</time>
      </trkpt>
      <trkpt lat="45.28422" lon="6.52337">
        <ele>2174</ele>
        <time>2022-06-09T17:54:56Z</time>
      </trkpt>
      <trkpt lat="45.28418" lon="6.52344">
        <ele>2170</ele>
        <time>2022-06-09T17:54:57Z</time>
      </trkpt>
      <trkpt lat="45.28464" lon="6.52388">
        <ele>2148</ele>
        <time>2022-06-09T17:55:10Z</time>
      </trkpt>
      <trkpt lat="45.28471" lon="6.52392">
        <ele>2145</ele>
        <time>2022-06-09T17:55:12Z</time>
      </trkpt>
      <trkpt lat="45.2849" lon="6.52397">
        <ele>2141</ele>
        <time>2022-06-09T17:55:17Z</time>
      </trkpt>
      <trkpt lat="45.28493" lon="6.52396">
        <ele>2142</ele>
        <time>2022-06-09T17:55:17Z</time>
      </trkpt>
      <trkpt lat="45.28513" lon="6.52405">
        <ele>2135</ele>
        <time>2022-06-09T17:55:22Z</time>
      </trkpt>
      <trkpt lat="45.28541" lon="6.52402">
        <ele>2135</ele>
        <time>2022-06-09T17:55:29Z</time>
      </trkpt>
      <trkpt lat="45.2855" lon="6.52399">
        <ele>2136</ele>
        <time>2022-06-09T17:55:31Z</time>
      </trkpt>
      <trkpt lat="45.28573" lon="6.52406">
        <ele>2130</ele>
        <time>2022-06-09T17:55:37Z</time>
      </trkpt>
      <trkpt lat="45.28587" lon="6.52406">
        <ele>2129</ele>
        <time>2022-06-09T17:55:40Z</time>
      </trkpt>
      <trkpt lat="45.286" lon="6.52414">
        <ele>2124</ele>
        <time>2022-06-09T17:55:43Z</time>
      </trkpt>
      <trkpt lat="45.28646" lon="6.52431">
        <ele>2118</ele>
        <time>2022-06-09T17:55:54Z</time>
      </trkpt>
      <trkpt lat="45.28647" lon="6.52438">
        <ele>2115</ele>
        <time>2022-06-09T17:55:55Z</time>
      </trkpt>
      <trkpt lat="45.2864" lon="6.52448">
        <ele>2112</ele>
        <time>2022-06-09T17:55:58Z</time>
      </trkpt>
      <trkpt lat="45.2867" lon="6.52478">
        <ele>2101</ele>
        <time>2022-06-09T17:56:06Z</time>
      </trkpt>
      <trkpt lat="45.28677" lon="6.52494">
        <ele>2095</ele>
        <time>2022-06-09T17:56:09Z</time>
      </trkpt>
      <trkpt lat="45.28679" lon="6.52505">
        <ele>2093</ele>
        <time>2022-06-09T17:56:11Z</time>
      </trkpt>
      <trkpt lat="45.28676" lon="6.52535">
        <ele>2090</ele>
        <time>2022-06-09T17:56:16Z</time>
      </trkpt>
      <trkpt lat="45.28681" lon="6.52546">
        <ele>2089</ele>
        <time>2022-06-09T17:56:18Z</time>
      </trkpt>
      <trkpt lat="45.28691" lon="6.52543">
        <ele>2088</ele>
        <time>2022-06-09T17:56:21Z</time>
      </trkpt>
      <trkpt lat="45.28726" lon="6.52542">
        <ele>2085</ele>
        <time>2022-06-09T17:56:29Z</time>
      </trkpt>
      <trkpt lat="45.28752" lon="6.52514">
        <ele>2085</ele>
        <time>2022-06-09T17:56:37Z</time>
      </trkpt>
      <trkpt lat="45.28768" lon="6.52504">
        <ele>2085</ele>
        <time>2022-06-09T17:56:41Z</time>
      </trkpt>
      <trkpt lat="45.28778" lon="6.52506">
        <ele>2084</ele>
        <time>2022-06-09T17:56:43Z</time>
      </trkpt>
      <trkpt lat="45.28792" lon="6.52492">
        <ele>2086</ele>
        <time>2022-06-09T17:56:47Z</time>
      </trkpt>
      <trkpt lat="45.28802" lon="6.52491">
        <ele>2086</ele>
        <time>2022-06-09T17:56:49Z</time>
      </trkpt>
      <trkpt lat="45.28808" lon="6.52495">
        <ele>2084</ele>
        <time>2022-06-09T17:56:51Z</time>
      </trkpt>
      <trkpt lat="45.28817" lon="6.52496">
        <ele>2083</ele>
        <time>2022-06-09T17:56:53Z</time>
      </trkpt>
      <trkpt lat="45.28838" lon="6.52511">
        <ele>2079</ele>
        <time>2022-06-09T17:56:58Z</time>
      </trkpt>
      <trkpt lat="45.28866" lon="6.52517">
        <ele>2078</ele>
        <time>2022-06-09T17:57:05Z</time>
      </trkpt>
      <trkpt lat="45.2887" lon="6.52523">
        <ele>2077</ele>
        <time>2022-06-09T17:57:06Z</time>
      </trkpt>
      <trkpt lat="45.28878" lon="6.52525">
        <ele>2077</ele>
        <time>2022-06-09T17:57:08Z</time>
      </trkpt>
      <trkpt lat="45.28886" lon="6.52531">
        <ele>2076</ele>
        <time>2022-06-09T17:57:10Z</time>
      </trkpt>
      <trkpt lat="45.28907" lon="6.52536">
        <ele>2075</ele>
        <time>2022-06-09T17:57:15Z</time>
      </trkpt>
      <trkpt lat="45.28911" lon="6.52535">
        <ele>2075</ele>
        <time>2022-06-09T17:57:16Z</time>
      </trkpt>
      <trkpt lat="45.28918" lon="6.52528">
        <ele>2076</ele>
        <time>2022-06-09T17:57:18Z</time>
      </trkpt>
      <trkpt lat="45.28926" lon="6.52528">
        <ele>2077</ele>
        <time>2022-06-09T17:57:20Z</time>
      </trkpt>
      <trkpt lat="45.28933" lon="6.52525">
        <ele>2079</ele>
        <time>2022-06-09T17:57:22Z</time>
      </trkpt>
      <trkpt lat="45.28937" lon="6.5252">
        <ele>2080</ele>
        <time>2022-06-09T17:57:23Z</time>
      </trkpt>
      <trkpt lat="45.2896" lon="6.52505">
        <ele>2086</ele>
        <time>2022-06-09T17:57:29Z</time>
      </trkpt>
      <trkpt lat="45.2898" lon="6.52512">
        <ele>2087</ele>
        <time>2022-06-09T17:57:34Z</time>
      </trkpt>
      <trkpt lat="45.28986" lon="6.52521">
        <ele>2086</ele>
        <time>2022-06-09T17:57:36Z</time>
      </trkpt>
      <trkpt lat="45.28986" lon="6.52536">
        <ele>2084</ele>
        <time>2022-06-09T17:57:38Z</time>
      </trkpt>
      <trkpt lat="45.28997" lon="6.52549">
        <ele>2083</ele>
        <time>2022-06-09T17:57:42Z</time>
      </trkpt>
      <trkpt lat="45.29001" lon="6.5256">
        <ele>2081</ele>
        <time>2022-06-09T17:57:44Z</time>
      </trkpt>
      <trkpt lat="45.28999" lon="6.5256">
        <ele>2081</ele>
        <time>2022-06-09T17:57:44Z</time>
      </trkpt>
      <trkpt lat="45.28999" lon="6.52556">
        <ele>2082</ele>
        <time>2022-06-09T17:57:45Z</time>
      </trkpt>
      <trkpt lat="45.28999" lon="6.52558">
        <ele>2081</ele>
        <time>2022-06-09T17:57:45Z</time>
      </trkpt>
      <trkpt lat="45.28984" lon="6.52547">
        <ele>2081</ele>
        <time>2022-06-09T17:57:49Z</time>
      </trkpt>
      <trkpt lat="45.28976" lon="6.52547">
        <ele>2080</ele>
        <time>2022-06-09T17:57:51Z</time>
      </trkpt>
      <trkpt lat="45.28974" lon="6.52549">
        <ele>2080</ele>
        <time>2022-06-09T17:57:52Z</time>
      </trkpt>
      <trkpt lat="45.28971" lon="6.52548">
        <ele>2079</ele>
        <time>2022-06-09T17:57:52Z</time>
      </trkpt>
      <trkpt lat="45.28943" lon="6.5257">
        <ele>2071</ele>
        <time>2022-06-09T17:58:00Z</time>
      </trkpt>
      <trkpt lat="45.28918" lon="6.52566">
        <ele>2069</ele>
        <time>2022-06-09T17:58:06Z</time>
      </trkpt>
      <trkpt lat="45.28918" lon="6.5257">
        <ele>2068</ele>
        <time>2022-06-09T17:58:06Z</time>
      </trkpt>
      <trkpt lat="45.2892" lon="6.52569">
        <ele>2068</ele>
        <time>2022-06-09T17:58:07Z</time>
      </trkpt>
      <trkpt lat="45.28917" lon="6.52569">
        <ele>2068</ele>
        <time>2022-06-09T17:58:08Z</time>
      </trkpt>
      <trkpt lat="45.28911" lon="6.52575">
        <ele>2067</ele>
        <time>2022-06-09T17:58:09Z</time>
      </trkpt>
      <trkpt lat="45.28925" lon="6.52615">
        <ele>2061</ele>
        <time>2022-06-09T17:58:17Z</time>
      </trkpt>
      <trkpt lat="45.28942" lon="6.5265">
        <ele>2058</ele>
        <time>2022-06-09T17:58:24Z</time>
      </trkpt>
      <trkpt lat="45.28947" lon="6.52652">
        <ele>2058</ele>
        <time>2022-06-09T17:58:25Z</time>
      </trkpt>
      <trkpt lat="45.28955" lon="6.52661">
        <ele>2057</ele>
        <time>2022-06-09T17:58:27Z</time>
      </trkpt>
      <trkpt lat="45.28947" lon="6.52672">
        <ele>2054</ele>
        <time>2022-06-09T17:58:30Z</time>
      </trkpt>
      <trkpt lat="45.28953" lon="6.52677">
        <ele>2054</ele>
        <time>2022-06-09T17:58:31Z</time>
      </trkpt>
      <trkpt lat="45.28958" lon="6.52692">
        <ele>2052</ele>
        <time>2022-06-09T17:58:34Z</time>
      </trkpt>
      <trkpt lat="45.28962" lon="6.52727">
        <ele>2047</ele>
        <time>2022-06-09T17:58:40Z</time>
      </trkpt>
      <trkpt lat="45.28964" lon="6.52732">
        <ele>2046</ele>
        <time>2022-06-09T17:58:41Z</time>
      </trkpt>
      <trkpt lat="45.28965" lon="6.5273">
        <ele>2047</ele>
        <time>2022-06-09T17:58:41Z</time>
      </trkpt>
      <trkpt lat="45.28963" lon="6.52732">
        <ele>2046</ele>
        <time>2022-06-09T17:58:42Z</time>
      </trkpt>
      <trkpt lat="45.28968" lon="6.5273">
        <ele>2047</ele>
        <time>2022-06-09T17:58:43Z</time>
      </trkpt>
      <trkpt lat="45.2897" lon="6.52733">
        <ele>2046</ele>
        <time>2022-06-09T17:58:44Z</time>
      </trkpt>
      <trkpt lat="45.28965" lon="6.52728">
        <ele>2047</ele>
        <time>2022-06-09T17:58:45Z</time>
      </trkpt>
      <trkpt lat="45.28971" lon="6.52732">
        <ele>2047</ele>
        <time>2022-06-09T17:58:47Z</time>
      </trkpt>
      <trkpt lat="45.2897" lon="6.52729">
        <ele>2047</ele>
        <time>2022-06-09T17:58:47Z</time>
      </trkpt>
      <trkpt lat="45.28965" lon="6.52729">
        <ele>2047</ele>
        <time>2022-06-09T17:58:48Z</time>
      </trkpt>
      <trkpt lat="45.28969" lon="6.52731">
        <ele>2047</ele>
        <time>2022-06-09T17:58:49Z</time>
      </trkpt>
      <trkpt lat="45.28967" lon="6.52733">
        <ele>2046</ele>
        <time>2022-06-09T17:58:50Z</time>
      </trkpt>
      <trkpt lat="45.2896" lon="6.5273">
        <ele>2046</ele>
        <time>2022-06-09T17:58:52Z</time>
      </trkpt>
      <trkpt lat="45.28962" lon="6.52732">
        <ele>2046</ele>
        <time>2022-06-09T17:58:52Z</time>
      </trkpt>
      <trkpt lat="45.28965" lon="6.5273">
        <ele>2047</ele>
        <time>2022-06-09T17:58:53Z</time>
      </trkpt>
      <trkpt lat="45.28963" lon="6.52732">
        <ele>2046</ele>
        <time>2022-06-09T17:58:54Z</time>
      </trkpt>
      <trkpt lat="45.28963" lon="6.52728">
        <ele>2047</ele>
        <time>2022-06-09T17:58:54Z</time>
      </trkpt>
      <trkpt lat="45.28967" lon="6.52731">
        <ele>2047</ele>
        <time>2022-06-09T17:58:55Z</time>
      </trkpt>
      <trkpt lat="45.28962" lon="6.52728">
        <ele>2047</ele>
        <time>2022-06-09T17:58:57Z</time>
      </trkpt>
      <trkpt lat="45.28967" lon="6.52731">
        <ele>2047</ele>
        <time>2022-06-09T17:58:58Z</time>
      </trkpt>
      <trkpt lat="45.28964" lon="6.52728">
        <ele>2047</ele>
        <time>2022-06-09T17:58:59Z</time>
      </trkpt>
      <trkpt lat="45.28962" lon="6.5273">
        <ele>2046</ele>
        <time>2022-06-09T17:58:59Z</time>
      </trkpt>
      <trkpt lat="45.28964" lon="6.5273">
        <ele>2047</ele>
        <time>2022-06-09T17:59:00Z</time>
      </trkpt>
      <trkpt lat="45.28955" lon="6.5273">
        <ele>2046</ele>
        <time>2022-06-09T17:59:02Z</time>
      </trkpt>
      <trkpt lat="45.28953" lon="6.52732">
        <ele>2046</ele>
        <time>2022-06-09T17:59:02Z</time>
      </trkpt>
      <trkpt lat="45.28936" lon="6.52732">
        <ele>2045</ele>
        <time>2022-06-09T17:59:06Z</time>
      </trkpt>
      <trkpt lat="45.28914" lon="6.52748">
        <ele>2042</ele>
        <time>2022-06-09T17:59:12Z</time>
      </trkpt>
      <trkpt lat="45.2891" lon="6.52747">
        <ele>2042</ele>
        <time>2022-06-09T17:59:13Z</time>
      </trkpt>
      <trkpt lat="45.28903" lon="6.5275">
        <ele>2043</ele>
        <time>2022-06-09T17:59:15Z</time>
      </trkpt>
      <trkpt lat="45.28896" lon="6.5275">
        <ele>2044</ele>
        <time>2022-06-09T17:59:16Z</time>
      </trkpt>
      <trkpt lat="45.28883" lon="6.52743">
        <ele>2047</ele>
        <time>2022-06-09T17:59:20Z</time>
      </trkpt>
      <trkpt lat="45.28876" lon="6.52746">
        <ele>2047</ele>
        <time>2022-06-09T17:59:21Z</time>
      </trkpt>
      <trkpt lat="45.28869" lon="6.5276">
        <ele>2046</ele>
        <time>2022-06-09T17:59:24Z</time>
      </trkpt>
      <trkpt lat="45.2886" lon="6.52762">
        <ele>2047</ele>
        <time>2022-06-09T17:59:26Z</time>
      </trkpt>
      <trkpt lat="45.28847" lon="6.52774">
        <ele>2046</ele>
        <time>2022-06-09T17:59:30Z</time>
      </trkpt>
      <trkpt lat="45.2882" lon="6.52785">
        <ele>2050</ele>
        <time>2022-06-09T17:59:37Z</time>
      </trkpt>
      <trkpt lat="45.28814" lon="6.52785">
        <ele>2051</ele>
        <time>2022-06-09T17:59:38Z</time>
      </trkpt>
      <trkpt lat="45.28805" lon="6.52796">
        <ele>2052</ele>
        <time>2022-06-09T17:59:41Z</time>
      </trkpt>
      <trkpt lat="45.288" lon="6.52797">
        <ele>2053</ele>
        <time>2022-06-09T17:59:42Z</time>
      </trkpt>
      <trkpt lat="45.28792" lon="6.52805">
        <ele>2054</ele>
        <time>2022-06-09T17:59:44Z</time>
      </trkpt>
      <trkpt lat="45.28782" lon="6.52824">
        <ele>2053</ele>
        <time>2022-06-09T17:59:48Z</time>
      </trkpt>
      <trkpt lat="45.28781" lon="6.52833">
        <ele>2052</ele>
        <time>2022-06-09T17:59:50Z</time>
      </trkpt>
      <trkpt lat="45.28784" lon="6.52852">
        <ele>2053</ele>
        <time>2022-06-09T17:59:53Z</time>
      </trkpt>
      <trkpt lat="45.28795" lon="6.52884">
        <ele>2053</ele>
        <time>2022-06-09T17:59:59Z</time>
      </trkpt>
      <trkpt lat="45.2882" lon="6.52923">
        <ele>2051</ele>
        <time>2022-06-09T18:00:07Z</time>
      </trkpt>
      <trkpt lat="45.28832" lon="6.52935">
        <ele>2050</ele>
        <time>2022-06-09T18:00:11Z</time>
      </trkpt>
      <trkpt lat="45.28843" lon="6.52937">
        <ele>2050</ele>
        <time>2022-06-09T18:00:13Z</time>
      </trkpt>
      <trkpt lat="45.28855" lon="6.52951">
        <ele>2052</ele>
        <time>2022-06-09T18:00:17Z</time>
      </trkpt>
      <trkpt lat="45.28858" lon="6.52951">
        <ele>2052</ele>
        <time>2022-06-09T18:00:18Z</time>
      </trkpt>
      <trkpt lat="45.28867" lon="6.52948">
        <ele>2050</ele>
        <time>2022-06-09T18:00:20Z</time>
      </trkpt>
      <trkpt lat="45.28879" lon="6.52939">
        <ele>2048</ele>
        <time>2022-06-09T18:00:23Z</time>
      </trkpt>
      <trkpt lat="45.28887" lon="6.52942">
        <ele>2048</ele>
        <time>2022-06-09T18:00:25Z</time>
      </trkpt>
      <trkpt lat="45.2892" lon="6.52933">
        <ele>2044</ele>
        <time>2022-06-09T18:00:33Z</time>
      </trkpt>
      <trkpt lat="45.28931" lon="6.52934">
        <ele>2043</ele>
        <time>2022-06-09T18:00:35Z</time>
      </trkpt>
      <trkpt lat="45.28949" lon="6.5293">
        <ele>2040</ele>
        <time>2022-06-09T18:00:40Z</time>
      </trkpt>
      <trkpt lat="45.28962" lon="6.5293">
        <ele>2039</ele>
        <time>2022-06-09T18:00:43Z</time>
      </trkpt>
      <trkpt lat="45.28966" lon="6.52932">
        <ele>2039</ele>
        <time>2022-06-09T18:00:44Z</time>
      </trkpt>
      <trkpt lat="45.28974" lon="6.52952">
        <ele>2042</ele>
        <time>2022-06-09T18:00:47Z</time>
      </trkpt>
      <trkpt lat="45.2898" lon="6.52955">
        <ele>2043</ele>
        <time>2022-06-09T18:00:49Z</time>
      </trkpt>
      <trkpt lat="45.28991" lon="6.52952">
        <ele>2041</ele>
        <time>2022-06-09T18:00:51Z</time>
      </trkpt>
      <trkpt lat="45.29005" lon="6.52954">
        <ele>2040</ele>
        <time>2022-06-09T18:00:55Z</time>
      </trkpt>
      <trkpt lat="45.29009" lon="6.52957">
        <ele>2041</ele>
        <time>2022-06-09T18:00:56Z</time>
      </trkpt>
      <trkpt lat="45.29016" lon="6.52971">
        <ele>2043</ele>
        <time>2022-06-09T18:00:59Z</time>
      </trkpt>
      <trkpt lat="45.29026" lon="6.52979">
        <ele>2043</ele>
        <time>2022-06-09T18:01:01Z</time>
      </trkpt>
      <trkpt lat="45.29035" lon="6.52991">
        <ele>2043</ele>
        <time>2022-06-09T18:01:04Z</time>
      </trkpt>
      <trkpt lat="45.29043" lon="6.5301">
        <ele>2046</ele>
        <time>2022-06-09T18:01:08Z</time>
      </trkpt>
      <trkpt lat="45.29075" lon="6.53047">
        <ele>2048</ele>
        <time>2022-06-09T18:01:17Z</time>
      </trkpt>
      <trkpt lat="45.29085" lon="6.53054">
        <ele>2047</ele>
        <time>2022-06-09T18:01:20Z</time>
      </trkpt>
      <trkpt lat="45.29092" lon="6.53055">
        <ele>2047</ele>
        <time>2022-06-09T18:01:22Z</time>
      </trkpt>
      <trkpt lat="45.2913" lon="6.53081">
        <ele>2046</ele>
        <time>2022-06-09T18:01:32Z</time>
      </trkpt>
      <trkpt lat="45.29137" lon="6.5309">
        <ele>2047</ele>
        <time>2022-06-09T18:01:34Z</time>
      </trkpt>
      <trkpt lat="45.2916" lon="6.531">
        <ele>2047</ele>
        <time>2022-06-09T18:01:39Z</time>
      </trkpt>
      <trkpt lat="45.29163" lon="6.53104">
        <ele>2048</ele>
        <time>2022-06-09T18:01:40Z</time>
      </trkpt>
      <trkpt lat="45.29169" lon="6.53106">
        <ele>2047</ele>
        <time>2022-06-09T18:01:42Z</time>
      </trkpt>
      <trkpt lat="45.29172" lon="6.53104">
        <ele>2047</ele>
        <time>2022-06-09T18:01:43Z</time>
      </trkpt>
      <trkpt lat="45.29194" lon="6.53103">
        <ele>2046</ele>
        <time>2022-06-09T18:01:48Z</time>
      </trkpt>
      <trkpt lat="45.29246" lon="6.53121">
        <ele>2047</ele>
        <time>2022-06-09T18:02:00Z</time>
      </trkpt>
      <trkpt lat="45.29268" lon="6.53139">
        <ele>2049</ele>
        <time>2022-06-09T18:02:06Z</time>
      </trkpt>
      <trkpt lat="45.29288" lon="6.53143">
        <ele>2048</ele>
        <time>2022-06-09T18:02:11Z</time>
      </trkpt>
      <trkpt lat="45.29289" lon="6.53146">
        <ele>2048</ele>
        <time>2022-06-09T18:02:11Z</time>
      </trkpt>
      <trkpt lat="45.29311" lon="6.53159">
        <ele>2048</ele>
        <time>2022-06-09T18:02:17Z</time>
      </trkpt>
      <trkpt lat="45.2932" lon="6.53172">
        <ele>2049</ele>
        <time>2022-06-09T18:02:20Z</time>
      </trkpt>
      <trkpt lat="45.29339" lon="6.53172">
        <ele>2047</ele>
        <time>2022-06-09T18:02:24Z</time>
      </trkpt>
      <trkpt lat="45.29345" lon="6.5317">
        <ele>2047</ele>
        <time>2022-06-09T18:02:26Z</time>
      </trkpt>
      <trkpt lat="45.29355" lon="6.53154">
        <ele>2046</ele>
        <time>2022-06-09T18:02:29Z</time>
      </trkpt>
      <trkpt lat="45.29355" lon="6.53157">
        <ele>2046</ele>
        <time>2022-06-09T18:02:30Z</time>
      </trkpt>
      <trkpt lat="45.29358" lon="6.53156">
        <ele>2046</ele>
        <time>2022-06-09T18:02:31Z</time>
      </trkpt>
      <trkpt lat="45.29389" lon="6.53177">
        <ele>2043</ele>
        <time>2022-06-09T18:02:39Z</time>
      </trkpt>
      <trkpt lat="45.2942" lon="6.53182">
        <ele>2041</ele>
        <time>2022-06-09T18:02:46Z</time>
      </trkpt>
      <trkpt lat="45.29444" lon="6.53192">
        <ele>2040</ele>
        <time>2022-06-09T18:02:52Z</time>
      </trkpt>
      <trkpt lat="45.29478" lon="6.53191">
        <ele>2040</ele>
        <time>2022-06-09T18:03:00Z</time>
      </trkpt>
      <trkpt lat="45.29497" lon="6.53213">
        <ele>2035</ele>
        <time>2022-06-09T18:03:05Z</time>
      </trkpt>
      <trkpt lat="45.29504" lon="6.53245">
        <ele>2026</ele>
        <time>2022-06-09T18:03:11Z</time>
      </trkpt>
      <trkpt lat="45.29514" lon="6.5326">
        <ele>2024</ele>
        <time>2022-06-09T18:03:14Z</time>
      </trkpt>
      <trkpt lat="45.29519" lon="6.53265">
        <ele>2023</ele>
        <time>2022-06-09T18:03:16Z</time>
      </trkpt>
      <trkpt lat="45.29537" lon="6.53272">
        <ele>2021</ele>
        <time>2022-06-09T18:03:20Z</time>
      </trkpt>
      <trkpt lat="45.2954" lon="6.53278">
        <ele>2020</ele>
        <time>2022-06-09T18:03:21Z</time>
      </trkpt>
      <trkpt lat="45.2954" lon="6.53286">
        <ele>2018</ele>
        <time>2022-06-09T18:03:23Z</time>
      </trkpt>
      <trkpt lat="45.2956" lon="6.53303">
        <ele>2012</ele>
        <time>2022-06-09T18:03:28Z</time>
      </trkpt>
      <trkpt lat="45.29579" lon="6.53311">
        <ele>2008</ele>
        <time>2022-06-09T18:03:33Z</time>
      </trkpt>
      <trkpt lat="45.29602" lon="6.53305">
        <ele>2010</ele>
        <time>2022-06-09T18:03:38Z</time>
      </trkpt>
      <trkpt lat="45.29616" lon="6.53314">
        <ele>2008</ele>
        <time>2022-06-09T18:03:42Z</time>
      </trkpt>
      <trkpt lat="45.29646" lon="6.53319">
        <ele>2009</ele>
        <time>2022-06-09T18:03:49Z</time>
      </trkpt>
      <trkpt lat="45.2965" lon="6.53317">
        <ele>2009</ele>
        <time>2022-06-09T18:03:50Z</time>
      </trkpt>
      <trkpt lat="45.29658" lon="6.5332">
        <ele>2009</ele>
        <time>2022-06-09T18:03:52Z</time>
      </trkpt>
      <trkpt lat="45.29676" lon="6.5334">
        <ele>2005</ele>
        <time>2022-06-09T18:03:57Z</time>
      </trkpt>
      <trkpt lat="45.29686" lon="6.5336">
        <ele>2000</ele>
        <time>2022-06-09T18:04:01Z</time>
      </trkpt>
      <trkpt lat="45.29693" lon="6.534">
        <ele>1991</ele>
        <time>2022-06-09T18:04:08Z</time>
      </trkpt>
      <trkpt lat="45.29706" lon="6.5343">
        <ele>1984</ele>
        <time>2022-06-09T18:04:14Z</time>
      </trkpt>
      <trkpt lat="45.29727" lon="6.53428">
        <ele>1982</ele>
        <time>2022-06-09T18:04:19Z</time>
      </trkpt>
      <trkpt lat="45.29743" lon="6.53432">
        <ele>1980</ele>
        <time>2022-06-09T18:04:22Z</time>
      </trkpt>
      <trkpt lat="45.2977" lon="6.53423">
        <ele>1978</ele>
        <time>2022-06-09T18:04:29Z</time>
      </trkpt>
      <trkpt lat="45.29787" lon="6.53414">
        <ele>1977</ele>
        <time>2022-06-09T18:04:33Z</time>
      </trkpt>
      <trkpt lat="45.29813" lon="6.53408">
        <ele>1973</ele>
        <time>2022-06-09T18:04:39Z</time>
      </trkpt>
      <trkpt lat="45.29822" lon="6.53414">
        <ele>1970</ele>
        <time>2022-06-09T18:04:42Z</time>
      </trkpt>
      <trkpt lat="45.2983" lon="6.53411">
        <ele>1969</ele>
        <time>2022-06-09T18:04:43Z</time>
      </trkpt>
      <trkpt lat="45.29837" lon="6.53412">
        <ele>1968</ele>
        <time>2022-06-09T18:04:45Z</time>
      </trkpt>
      <trkpt lat="45.29841" lon="6.53416">
        <ele>1966</ele>
        <time>2022-06-09T18:04:46Z</time>
      </trkpt>
      <trkpt lat="45.29852" lon="6.53419">
        <ele>1963</ele>
        <time>2022-06-09T18:04:49Z</time>
      </trkpt>
      <trkpt lat="45.29867" lon="6.53432">
        <ele>1957</ele>
        <time>2022-06-09T18:04:53Z</time>
      </trkpt>
      <trkpt lat="45.29878" lon="6.53434">
        <ele>1954</ele>
        <time>2022-06-09T18:04:56Z</time>
      </trkpt>
      <trkpt lat="45.29889" lon="6.53423">
        <ele>1955</ele>
        <time>2022-06-09T18:04:59Z</time>
      </trkpt>
      <trkpt lat="45.29891" lon="6.53407">
        <ele>1959</ele>
        <time>2022-06-09T18:05:01Z</time>
      </trkpt>
      <trkpt lat="45.29895" lon="6.53396">
        <ele>1961</ele>
        <time>2022-06-09T18:05:03Z</time>
      </trkpt>
      <trkpt lat="45.29906" lon="6.53386">
        <ele>1961</ele>
        <time>2022-06-09T18:05:06Z</time>
      </trkpt>
      <trkpt lat="45.29939" lon="6.53381">
        <ele>1964</ele>
        <time>2022-06-09T18:05:14Z</time>
      </trkpt>
      <trkpt lat="45.29952" lon="6.53403">
        <ele>1960</ele>
        <time>2022-06-09T18:05:19Z</time>
      </trkpt>
      <trkpt lat="45.29962" lon="6.53426">
        <ele>1955</ele>
        <time>2022-06-09T18:05:23Z</time>
      </trkpt>
      <trkpt lat="45.29986" lon="6.53458">
        <ele>1952</ele>
        <time>2022-06-09T18:05:31Z</time>
      </trkpt>
      <trkpt lat="45.29993" lon="6.53472">
        <ele>1950</ele>
        <time>2022-06-09T18:05:34Z</time>
      </trkpt>
      <trkpt lat="45.30015" lon="6.53535">
        <ele>1941</ele>
        <time>2022-06-09T18:05:45Z</time>
      </trkpt>
      <trkpt lat="45.30017" lon="6.53548">
        <ele>1938</ele>
        <time>2022-06-09T18:05:48Z</time>
      </trkpt>
      <trkpt lat="45.30039" lon="6.53573">
        <ele>1936</ele>
        <time>2022-06-09T18:05:54Z</time>
      </trkpt>
      <trkpt lat="45.30045" lon="6.53584">
        <ele>1934</ele>
        <time>2022-06-09T18:05:56Z</time>
      </trkpt>
      <trkpt lat="45.30056" lon="6.53596">
        <ele>1932</ele>
        <time>2022-06-09T18:06:00Z</time>
      </trkpt>
      <trkpt lat="45.30081" lon="6.53614">
        <ele>1929</ele>
        <time>2022-06-09T18:06:06Z</time>
      </trkpt>
      <trkpt lat="45.30099" lon="6.53619">
        <ele>1929</ele>
        <time>2022-06-09T18:06:11Z</time>
      </trkpt>
      <trkpt lat="45.30117" lon="6.53617">
        <ele>1931</ele>
        <time>2022-06-09T18:06:15Z</time>
      </trkpt>
      <trkpt lat="45.30127" lon="6.53624">
        <ele>1930</ele>
        <time>2022-06-09T18:06:17Z</time>
      </trkpt>
      <trkpt lat="45.30171" lon="6.53671">
        <ele>1916</ele>
        <time>2022-06-09T18:06:30Z</time>
      </trkpt>
      <trkpt lat="45.30196" lon="6.53706">
        <ele>1906</ele>
        <time>2022-06-09T18:06:38Z</time>
      </trkpt>
      <trkpt lat="45.30207" lon="6.53705">
        <ele>1907</ele>
        <time>2022-06-09T18:06:41Z</time>
      </trkpt>
      <trkpt lat="45.3022" lon="6.53716">
        <ele>1904</ele>
        <time>2022-06-09T18:06:44Z</time>
      </trkpt>
      <trkpt lat="45.3023" lon="6.53721">
        <ele>1903</ele>
        <time>2022-06-09T18:06:47Z</time>
      </trkpt>
      <trkpt lat="45.3024" lon="6.5372">
        <ele>1904</ele>
        <time>2022-06-09T18:06:49Z</time>
      </trkpt>
      <trkpt lat="45.30267" lon="6.53709">
        <ele>1909</ele>
        <time>2022-06-09T18:06:56Z</time>
      </trkpt>
      <trkpt lat="45.30289" lon="6.53711">
        <ele>1909</ele>
        <time>2022-06-09T18:07:01Z</time>
      </trkpt>
      <trkpt lat="45.30316" lon="6.53741">
        <ele>1896</ele>
        <time>2022-06-09T18:07:09Z</time>
      </trkpt>
      <trkpt lat="45.30337" lon="6.53744">
        <ele>1894</ele>
        <time>2022-06-09T18:07:14Z</time>
      </trkpt>
      <trkpt lat="45.30364" lon="6.53739">
        <ele>1894</ele>
        <time>2022-06-09T18:07:20Z</time>
      </trkpt>
      <trkpt lat="45.30386" lon="6.5374">
        <ele>1891</ele>
        <time>2022-06-09T18:07:25Z</time>
      </trkpt>
      <trkpt lat="45.30399" lon="6.53733">
        <ele>1893</ele>
        <time>2022-06-09T18:07:29Z</time>
      </trkpt>
      <trkpt lat="45.30422" lon="6.53729">
        <ele>1892</ele>
        <time>2022-06-09T18:07:34Z</time>
      </trkpt>
      <trkpt lat="45.30426" lon="6.53725">
        <ele>1894</ele>
        <time>2022-06-09T18:07:35Z</time>
      </trkpt>
      <trkpt lat="45.3043" lon="6.53725">
        <ele>1893</ele>
        <time>2022-06-09T18:07:36Z</time>
      </trkpt>
      <trkpt lat="45.30436" lon="6.53717">
        <ele>1896</ele>
        <time>2022-06-09T18:07:38Z</time>
      </trkpt>
      <trkpt lat="45.30452" lon="6.53712">
        <ele>1896</ele>
        <time>2022-06-09T18:07:42Z</time>
      </trkpt>
      <trkpt lat="45.30468" lon="6.53714">
        <ele>1891</ele>
        <time>2022-06-09T18:07:46Z</time>
      </trkpt>
      <trkpt lat="45.30476" lon="6.53717">
        <ele>1888</ele>
        <time>2022-06-09T18:07:48Z</time>
      </trkpt>
      <trkpt lat="45.30484" lon="6.53724">
        <ele>1883</ele>
        <time>2022-06-09T18:07:50Z</time>
      </trkpt>
      <trkpt lat="45.30492" lon="6.53725">
        <ele>1881</ele>
        <time>2022-06-09T18:07:52Z</time>
      </trkpt>
      <trkpt lat="45.30521" lon="6.53718">
        <ele>1879</ele>
        <time>2022-06-09T18:07:59Z</time>
      </trkpt>
      <trkpt lat="45.3053" lon="6.53711">
        <ele>1881</ele>
        <time>2022-06-09T18:08:01Z</time>
      </trkpt>
      <trkpt lat="45.30534" lon="6.53711">
        <ele>1880</ele>
        <time>2022-06-09T18:08:02Z</time>
      </trkpt>
      <trkpt lat="45.30549" lon="6.53716">
        <ele>1875</ele>
        <time>2022-06-09T18:08:05Z</time>
      </trkpt>
      <trkpt lat="45.30569" lon="6.53727">
        <ele>1867</ele>
        <time>2022-06-09T18:08:10Z</time>
      </trkpt>
      <trkpt lat="45.30587" lon="6.53732">
        <ele>1863</ele>
        <time>2022-06-09T18:08:15Z</time>
      </trkpt>
      <trkpt lat="45.30598" lon="6.5373">
        <ele>1864</ele>
        <time>2022-06-09T18:08:17Z</time>
      </trkpt>
      <trkpt lat="45.30605" lon="6.53734">
        <ele>1863</ele>
        <time>2022-06-09T18:08:19Z</time>
      </trkpt>
      <trkpt lat="45.30606" lon="6.53738">
        <ele>1862</ele>
        <time>2022-06-09T18:08:20Z</time>
      </trkpt>
      <trkpt lat="45.30617" lon="6.53732">
        <ele>1865</ele>
        <time>2022-06-09T18:08:23Z</time>
      </trkpt>
      <trkpt lat="45.30625" lon="6.53731">
        <ele>1866</ele>
        <time>2022-06-09T18:08:24Z</time>
      </trkpt>
      <trkpt lat="45.30628" lon="6.53737">
        <ele>1864</ele>
        <time>2022-06-09T18:08:26Z</time>
      </trkpt>
      <trkpt lat="45.30623" lon="6.53747">
        <ele>1859</ele>
        <time>2022-06-09T18:08:28Z</time>
      </trkpt>
      <trkpt lat="45.30624" lon="6.5375">
        <ele>1858</ele>
        <time>2022-06-09T18:08:28Z</time>
      </trkpt>
      <trkpt lat="45.30632" lon="6.53763">
        <ele>1854</ele>
        <time>2022-06-09T18:08:31Z</time>
      </trkpt>
      <trkpt lat="45.30653" lon="6.53788">
        <ele>1845</ele>
        <time>2022-06-09T18:08:37Z</time>
      </trkpt>
      <trkpt lat="45.3066" lon="6.53809">
        <ele>1837</ele>
        <time>2022-06-09T18:08:41Z</time>
      </trkpt>
      <trkpt lat="45.30672" lon="6.53813">
        <ele>1836</ele>
        <time>2022-06-09T18:08:44Z</time>
      </trkpt>
      <trkpt lat="45.30698" lon="6.53836">
        <ele>1828</ele>
        <time>2022-06-09T18:08:51Z</time>
      </trkpt>
      <trkpt lat="45.30716" lon="6.53846">
        <ele>1826</ele>
        <time>2022-06-09T18:08:56Z</time>
      </trkpt>
      <trkpt lat="45.3075" lon="6.53854">
        <ele>1824</ele>
        <time>2022-06-09T18:09:04Z</time>
      </trkpt>
      <trkpt lat="45.30758" lon="6.5385">
        <ele>1825</ele>
        <time>2022-06-09T18:09:06Z</time>
      </trkpt>
      <trkpt lat="45.308" lon="6.53853">
        <ele>1821</ele>
        <time>2022-06-09T18:09:16Z</time>
      </trkpt>
      <trkpt lat="45.30814" lon="6.53846">
        <ele>1822</ele>
        <time>2022-06-09T18:09:19Z</time>
      </trkpt>
      <trkpt lat="45.30837" lon="6.53844">
        <ele>1821</ele>
        <time>2022-06-09T18:09:24Z</time>
      </trkpt>
      <trkpt lat="45.30856" lon="6.53851">
        <ele>1817</ele>
        <time>2022-06-09T18:09:29Z</time>
      </trkpt>
      <trkpt lat="45.3086" lon="6.5385">
        <ele>1816</ele>
        <time>2022-06-09T18:09:30Z</time>
      </trkpt>
      <trkpt lat="45.30882" lon="6.53835">
        <ele>1816</ele>
        <time>2022-06-09T18:09:36Z</time>
      </trkpt>
      <trkpt lat="45.30908" lon="6.53827">
        <ele>1814</ele>
        <time>2022-06-09T18:09:42Z</time>
      </trkpt>
      <trkpt lat="45.30925" lon="6.53811">
        <ele>1813</ele>
        <time>2022-06-09T18:09:47Z</time>
      </trkpt>
      <trkpt lat="45.30939" lon="6.53804">
        <ele>1812</ele>
        <time>2022-06-09T18:09:50Z</time>
      </trkpt>
      <trkpt lat="45.30943" lon="6.53809">
        <ele>1810</ele>
        <time>2022-06-09T18:09:51Z</time>
      </trkpt>
      <trkpt lat="45.30951" lon="6.53804">
        <ele>1809</ele>
        <time>2022-06-09T18:09:53Z</time>
      </trkpt>
      <trkpt lat="45.30972" lon="6.53805">
        <ele>1804</ele>
        <time>2022-06-09T18:09:58Z</time>
      </trkpt>
      <trkpt lat="45.31001" lon="6.53794">
        <ele>1800</ele>
        <time>2022-06-09T18:10:05Z</time>
      </trkpt>
      <trkpt lat="45.31012" lon="6.53784">
        <ele>1799</ele>
        <time>2022-06-09T18:10:08Z</time>
      </trkpt>
      <trkpt lat="45.31018" lon="6.53769">
        <ele>1801</ele>
        <time>2022-06-09T18:10:11Z</time>
      </trkpt>
      <trkpt lat="45.31037" lon="6.53747">
        <ele>1801</ele>
        <time>2022-06-09T18:10:17Z</time>
      </trkpt>
      <trkpt lat="45.31052" lon="6.53742">
        <ele>1799</ele>
        <time>2022-06-09T18:10:21Z</time>
      </trkpt>
      <trkpt lat="45.31063" lon="6.53743">
        <ele>1796</ele>
        <time>2022-06-09T18:10:23Z</time>
      </trkpt>
      <trkpt lat="45.31085" lon="6.53754">
        <ele>1787</ele>
        <time>2022-06-09T18:10:29Z</time>
      </trkpt>
      <trkpt lat="45.31095" lon="6.53755">
        <ele>1787</ele>
        <time>2022-06-09T18:10:31Z</time>
      </trkpt>
      <trkpt lat="45.31104" lon="6.53753">
        <ele>1787</ele>
        <time>2022-06-09T18:10:33Z</time>
      </trkpt>
      <trkpt lat="45.31127" lon="6.53772">
        <ele>1783</ele>
        <time>2022-06-09T18:10:39Z</time>
      </trkpt>
      <trkpt lat="45.31171" lon="6.53794">
        <ele>1777</ele>
        <time>2022-06-09T18:10:50Z</time>
      </trkpt>
      <trkpt lat="45.31206" lon="6.53819">
        <ele>1769</ele>
        <time>2022-06-09T18:10:59Z</time>
      </trkpt>
      <trkpt lat="45.31228" lon="6.53826">
        <ele>1767</ele>
        <time>2022-06-09T18:11:05Z</time>
      </trkpt>
      <trkpt lat="45.31241" lon="6.53848">
        <ele>1764</ele>
        <time>2022-06-09T18:11:09Z</time>
      </trkpt>
      <trkpt lat="45.31269" lon="6.53858">
        <ele>1764</ele>
        <time>2022-06-09T18:11:16Z</time>
      </trkpt>
      <trkpt lat="45.31313" lon="6.53847">
        <ele>1764</ele>
        <time>2022-06-09T18:11:26Z</time>
      </trkpt>
      <trkpt lat="45.31375" lon="6.53846">
        <ele>1767</ele>
        <time>2022-06-09T18:11:41Z</time>
      </trkpt>
      <trkpt lat="45.31437" lon="6.53826">
        <ele>1770</ele>
        <time>2022-06-09T18:11:56Z</time>
      </trkpt>
      <trkpt lat="45.31467" lon="6.53812">
        <ele>1771</ele>
        <time>2022-06-09T18:12:03Z</time>
      </trkpt>
      <trkpt lat="45.31515" lon="6.53782">
        <ele>1767</ele>
        <time>2022-06-09T18:12:15Z</time>
      </trkpt>
      <trkpt lat="45.31546" lon="6.53783">
        <ele>1765</ele>
        <time>2022-06-09T18:12:23Z</time>
      </trkpt>
      <trkpt lat="45.31564" lon="6.53786">
        <ele>1765</ele>
        <time>2022-06-09T18:12:27Z</time>
      </trkpt>
      <trkpt lat="45.31599" lon="6.53785">
        <ele>1763</ele>
        <time>2022-06-09T18:12:35Z</time>
      </trkpt>
      <trkpt lat="45.31636" lon="6.53777">
        <ele>1761</ele>
        <time>2022-06-09T18:12:44Z</time>
      </trkpt>
      <trkpt lat="45.31733" lon="6.53704">
        <ele>1752</ele>
        <time>2022-06-09T18:13:09Z</time>
      </trkpt>
      <trkpt lat="45.31783" lon="6.53681">
        <ele>1748</ele>
        <time>2022-06-09T18:13:22Z</time>
      </trkpt>
      <trkpt lat="45.31873" lon="6.53684">
        <ele>1746</ele>
        <time>2022-06-09T18:13:43Z</time>
      </trkpt>
      <trkpt lat="45.31896" lon="6.5368">
        <ele>1747</ele>
        <time>2022-06-09T18:13:48Z</time>
      </trkpt>
      <trkpt lat="45.31956" lon="6.53715">
        <ele>1758</ele>
        <time>2022-06-09T18:14:03Z</time>
      </trkpt>
      <trkpt lat="45.31986" lon="6.53706">
        <ele>1760</ele>
        <time>2022-06-09T18:14:10Z</time>
      </trkpt>
      <trkpt lat="45.3201" lon="6.53685">
        <ele>1758</ele>
        <time>2022-06-09T18:14:17Z</time>
      </trkpt>
      <trkpt lat="45.32035" lon="6.53669">
        <ele>1758</ele>
        <time>2022-06-09T18:14:23Z</time>
      </trkpt>
      <trkpt lat="45.32067" lon="6.53664">
        <ele>1761</ele>
        <time>2022-06-09T18:14:31Z</time>
      </trkpt>
      <trkpt lat="45.32094" lon="6.53674">
        <ele>1766</ele>
        <time>2022-06-09T18:14:37Z</time>
      </trkpt>
      <trkpt lat="45.321" lon="6.53673">
        <ele>1766</ele>
        <time>2022-06-09T18:14:39Z</time>
      </trkpt>
      <trkpt lat="45.32127" lon="6.53666">
        <ele>1768</ele>
        <time>2022-06-09T18:14:45Z</time>
      </trkpt>
      <trkpt lat="45.32163" lon="6.53637">
        <ele>1766</ele>
        <time>2022-06-09T18:14:55Z</time>
      </trkpt>
      <trkpt lat="45.32185" lon="6.53639">
        <ele>1770</ele>
        <time>2022-06-09T18:15:00Z</time>
      </trkpt>
      <trkpt lat="45.32184" lon="6.53653">
        <ele>1772</ele>
        <time>2022-06-09T18:15:02Z</time>
      </trkpt>
      <trkpt lat="45.32177" lon="6.53664">
        <ele>1773</ele>
        <time>2022-06-09T18:15:05Z</time>
      </trkpt>
      <trkpt lat="45.32164" lon="6.53671">
        <ele>1773</ele>
        <time>2022-06-09T18:15:08Z</time>
      </trkpt>
      <trkpt lat="45.32107" lon="6.53715">
        <ele>1776</ele>
        <time>2022-06-09T18:15:23Z</time>
      </trkpt>
      <trkpt lat="45.32075" lon="6.53744">
        <ele>1778</ele>
        <time>2022-06-09T18:15:32Z</time>
      </trkpt>
      <trkpt lat="45.3208" lon="6.53775">
        <ele>1786</ele>
        <time>2022-06-09T18:15:37Z</time>
      </trkpt>
      <trkpt lat="45.32202" lon="6.53729">
        <ele>1797</ele>
        <time>2022-06-09T18:16:07Z</time>
      </trkpt>
      <trkpt lat="45.32316" lon="6.53702">
        <ele>1803</ele>
        <time>2022-06-09T18:16:34Z</time>
      </trkpt>
      <trkpt lat="45.32346" lon="6.53692">
        <ele>1802</ele>
        <time>2022-06-09T18:16:41Z</time>
      </trkpt>
      <trkpt lat="45.32359" lon="6.53679">
        <ele>1799</ele>
        <time>2022-06-09T18:16:45Z</time>
      </trkpt>
    </trkseg>
  </trk>
</gpx>